<?xml version="1.0" encoding="UTF-8" standalone="no" ?>
<gpx xmlns="http://www.topografix.com/GPX/1/1" xmlns:xsi="http://www.w3.org/2001/XMLSchema-instance" xsi:schemaLocation="http://www.topografix.com/GPX/1/1 http://www.topografix.com/GPX/1/1/gpx.xsd" version="1.1" creator="VisuGPX - https://www.visugpx.com">
  <metadata>
    <name>Ducambanderie avec un autre retour</name>
    <desc><![CDATA[Ténébra est en forme, mais les terrains moyens, nous ne prendrons pas le retour habituel.]]></desc>
  </metadata>
  <trk>
    <name><![CDATA[Saint-Léger-en-Yvelines Autre]]></name>
    <trkseg>
      <trkpt lat="48.70738" lon="1.75395">
        <ele>171.60000610352</ele>
        <time>2015-01-27T10:55:02.000Z</time>
      </trkpt>
      <trkpt lat="48.70738" lon="1.75394">
        <ele>171.60000610352</ele>
        <time>2015-01-27T10:55:03.000Z</time>
      </trkpt>
      <trkpt lat="48.70744" lon="1.7538">
        <ele>171.60000610352</ele>
        <time>2015-01-27T10:55:12.000Z</time>
      </trkpt>
      <trkpt lat="48.7075" lon="1.7537">
        <ele>171.80000305176</ele>
        <time>2015-01-27T10:55:19.000Z</time>
      </trkpt>
      <trkpt lat="48.70754" lon="1.75354">
        <ele>171.80000305176</ele>
        <time>2015-01-27T10:55:27.000Z</time>
      </trkpt>
      <trkpt lat="48.7076" lon="1.75341">
        <ele>171.80000305176</ele>
        <time>2015-01-27T10:55:35.000Z</time>
      </trkpt>
      <trkpt lat="48.70765" lon="1.75329">
        <ele>172</ele>
        <time>2015-01-27T10:55:43.000Z</time>
      </trkpt>
      <trkpt lat="48.70771" lon="1.75316">
        <ele>172</ele>
        <time>2015-01-27T10:55:52.000Z</time>
      </trkpt>
      <trkpt lat="48.70777" lon="1.753">
        <ele>172.39999389648</ele>
        <time>2015-01-27T10:56:02.000Z</time>
      </trkpt>
      <trkpt lat="48.70783" lon="1.75282">
        <ele>172.80000305176</ele>
        <time>2015-01-27T10:56:13.000Z</time>
      </trkpt>
      <trkpt lat="48.70789" lon="1.75264">
        <ele>173.19999694824</ele>
        <time>2015-01-27T10:56:23.000Z</time>
      </trkpt>
      <trkpt lat="48.70794" lon="1.75248">
        <ele>173.19999694824</ele>
        <time>2015-01-27T10:56:32.000Z</time>
      </trkpt>
      <trkpt lat="48.708" lon="1.75237">
        <ele>173.39999389648</ele>
        <time>2015-01-27T10:56:40.000Z</time>
      </trkpt>
      <trkpt lat="48.70801" lon="1.75237">
        <ele>173.39999389648</ele>
        <time>2015-01-27T10:56:43.000Z</time>
      </trkpt>
      <trkpt lat="48.7081" lon="1.75222">
        <ele>173.39999389648</ele>
        <time>2015-01-27T10:57:13.000Z</time>
      </trkpt>
      <trkpt lat="48.70816" lon="1.75209">
        <ele>173.60000610352</ele>
        <time>2015-01-27T10:57:21.000Z</time>
      </trkpt>
      <trkpt lat="48.70818" lon="1.75204">
        <ele>173.60000610352</ele>
        <time>2015-01-27T10:57:25.000Z</time>
      </trkpt>
      <trkpt lat="48.70825" lon="1.75188">
        <ele>173.39999389648</ele>
        <time>2015-01-27T10:57:36.000Z</time>
      </trkpt>
      <trkpt lat="48.70829" lon="1.75178">
        <ele>173.19999694824</ele>
        <time>2015-01-27T10:57:42.000Z</time>
      </trkpt>
      <trkpt lat="48.70834" lon="1.7517">
        <ele>173.19999694824</ele>
        <time>2015-01-27T10:57:48.000Z</time>
      </trkpt>
      <trkpt lat="48.70841" lon="1.75154">
        <ele>173</ele>
        <time>2015-01-27T10:57:57.000Z</time>
      </trkpt>
      <trkpt lat="48.70848" lon="1.75138">
        <ele>173.19999694824</ele>
        <time>2015-01-27T10:58:06.000Z</time>
      </trkpt>
      <trkpt lat="48.70855" lon="1.75121">
        <ele>173.39999389648</ele>
        <time>2015-01-27T10:58:16.000Z</time>
      </trkpt>
      <trkpt lat="48.70864" lon="1.75102">
        <ele>173.80000305176</ele>
        <time>2015-01-27T10:58:28.000Z</time>
      </trkpt>
      <trkpt lat="48.70872" lon="1.75085">
        <ele>174.19999694824</ele>
        <time>2015-01-27T10:58:38.000Z</time>
      </trkpt>
      <trkpt lat="48.7088" lon="1.75067">
        <ele>174</ele>
        <time>2015-01-27T10:58:48.000Z</time>
      </trkpt>
      <trkpt lat="48.70886" lon="1.7505">
        <ele>174.19999694824</ele>
        <time>2015-01-27T10:58:57.000Z</time>
      </trkpt>
      <trkpt lat="48.70895" lon="1.75033">
        <ele>174.39999389648</ele>
        <time>2015-01-27T10:59:08.000Z</time>
      </trkpt>
      <trkpt lat="48.70905" lon="1.75013">
        <ele>174.60000610352</ele>
        <time>2015-01-27T10:59:20.000Z</time>
      </trkpt>
      <trkpt lat="48.70912" lon="1.74996">
        <ele>174.80000305176</ele>
        <time>2015-01-27T10:59:30.000Z</time>
      </trkpt>
      <trkpt lat="48.70921" lon="1.74979">
        <ele>174.80000305176</ele>
        <time>2015-01-27T10:59:41.000Z</time>
      </trkpt>
      <trkpt lat="48.70928" lon="1.74964">
        <ele>174.80000305176</ele>
        <time>2015-01-27T10:59:50.000Z</time>
      </trkpt>
      <trkpt lat="48.7093" lon="1.74962">
        <ele>175</ele>
        <time>2015-01-27T10:59:52.000Z</time>
      </trkpt>
      <trkpt lat="48.70936" lon="1.74952">
        <ele>175</ele>
        <time>2015-01-27T10:59:59.000Z</time>
      </trkpt>
      <trkpt lat="48.70942" lon="1.74942">
        <ele>175.19999694824</ele>
        <time>2015-01-27T11:00:07.000Z</time>
      </trkpt>
      <trkpt lat="48.7095" lon="1.7493">
        <ele>175.39999389648</ele>
        <time>2015-01-27T11:00:17.000Z</time>
      </trkpt>
      <trkpt lat="48.70958" lon="1.74922">
        <ele>175.80000305176</ele>
        <time>2015-01-27T11:00:24.000Z</time>
      </trkpt>
      <trkpt lat="48.70961" lon="1.74918">
        <ele>176</ele>
        <time>2015-01-27T11:00:27.000Z</time>
      </trkpt>
      <trkpt lat="48.70968" lon="1.74912">
        <ele>176.39999389648</ele>
        <time>2015-01-27T11:00:33.000Z</time>
      </trkpt>
      <trkpt lat="48.70975" lon="1.74902">
        <ele>177</ele>
        <time>2015-01-27T11:00:41.000Z</time>
      </trkpt>
      <trkpt lat="48.70979" lon="1.74898">
        <ele>177.19999694824</ele>
        <time>2015-01-27T11:00:45.000Z</time>
      </trkpt>
      <trkpt lat="48.70988" lon="1.74888">
        <ele>178</ele>
        <time>2015-01-27T11:00:54.000Z</time>
      </trkpt>
      <trkpt lat="48.70995" lon="1.74876">
        <ele>178.60000610352</ele>
        <time>2015-01-27T11:01:02.000Z</time>
      </trkpt>
      <trkpt lat="48.71001" lon="1.74866">
        <ele>178.80000305176</ele>
        <time>2015-01-27T11:01:08.000Z</time>
      </trkpt>
      <trkpt lat="48.71003" lon="1.74861">
        <ele>178.80000305176</ele>
        <time>2015-01-27T11:01:11.000Z</time>
      </trkpt>
      <trkpt lat="48.71006" lon="1.7485">
        <ele>178.80000305176</ele>
        <time>2015-01-27T11:01:15.000Z</time>
      </trkpt>
      <trkpt lat="48.71007" lon="1.74838">
        <ele>178.80000305176</ele>
        <time>2015-01-27T11:01:20.000Z</time>
      </trkpt>
      <trkpt lat="48.71" lon="1.74825">
        <ele>178.80000305176</ele>
        <time>2015-01-27T11:01:28.000Z</time>
      </trkpt>
      <trkpt lat="48.70992" lon="1.74817">
        <ele>178.60000610352</ele>
        <time>2015-01-27T11:01:35.000Z</time>
      </trkpt>
      <trkpt lat="48.70984" lon="1.74808">
        <ele>178.60000610352</ele>
        <time>2015-01-27T11:01:43.000Z</time>
      </trkpt>
      <trkpt lat="48.70975" lon="1.74798">
        <ele>178.39999389648</ele>
        <time>2015-01-27T11:01:51.000Z</time>
      </trkpt>
      <trkpt lat="48.70969" lon="1.74789">
        <ele>178.39999389648</ele>
        <time>2015-01-27T11:01:58.000Z</time>
      </trkpt>
      <trkpt lat="48.70961" lon="1.74777">
        <ele>178.19999694824</ele>
        <time>2015-01-27T11:02:07.000Z</time>
      </trkpt>
      <trkpt lat="48.70953" lon="1.74764">
        <ele>178.19999694824</ele>
        <time>2015-01-27T11:02:16.000Z</time>
      </trkpt>
      <trkpt lat="48.70945" lon="1.74749">
        <ele>178</ele>
        <time>2015-01-27T11:02:26.000Z</time>
      </trkpt>
      <trkpt lat="48.70937" lon="1.74738">
        <ele>178</ele>
        <time>2015-01-27T11:02:34.000Z</time>
      </trkpt>
      <trkpt lat="48.70927" lon="1.74725">
        <ele>177.60000610352</ele>
        <time>2015-01-27T11:02:44.000Z</time>
      </trkpt>
      <trkpt lat="48.70919" lon="1.74712">
        <ele>177.39999389648</ele>
        <time>2015-01-27T11:02:53.000Z</time>
      </trkpt>
      <trkpt lat="48.7091" lon="1.74698">
        <ele>177</ele>
        <time>2015-01-27T11:03:03.000Z</time>
      </trkpt>
      <trkpt lat="48.709" lon="1.74685">
        <ele>176.80000305176</ele>
        <time>2015-01-27T11:03:13.000Z</time>
      </trkpt>
      <trkpt lat="48.70889" lon="1.74672">
        <ele>176.39999389648</ele>
        <time>2015-01-27T11:03:23.000Z</time>
      </trkpt>
      <trkpt lat="48.70881" lon="1.74661">
        <ele>176.19999694824</ele>
        <time>2015-01-27T11:03:30.000Z</time>
      </trkpt>
      <trkpt lat="48.70872" lon="1.74648">
        <ele>176</ele>
        <time>2015-01-27T11:03:39.000Z</time>
      </trkpt>
      <trkpt lat="48.70865" lon="1.74638">
        <ele>176</ele>
        <time>2015-01-27T11:03:47.000Z</time>
      </trkpt>
      <trkpt lat="48.70858" lon="1.74628">
        <ele>176</ele>
        <time>2015-01-27T11:03:55.000Z</time>
      </trkpt>
      <trkpt lat="48.70849" lon="1.74615">
        <ele>176</ele>
        <time>2015-01-27T11:04:04.000Z</time>
      </trkpt>
      <trkpt lat="48.70838" lon="1.746">
        <ele>176.19999694824</ele>
        <time>2015-01-27T11:04:15.000Z</time>
      </trkpt>
      <trkpt lat="48.70828" lon="1.74588">
        <ele>176.39999389648</ele>
        <time>2015-01-27T11:04:25.000Z</time>
      </trkpt>
      <trkpt lat="48.70819" lon="1.74578">
        <ele>176.39999389648</ele>
        <time>2015-01-27T11:04:34.000Z</time>
      </trkpt>
      <trkpt lat="48.70809" lon="1.74565">
        <ele>176.60000610352</ele>
        <time>2015-01-27T11:04:44.000Z</time>
      </trkpt>
      <trkpt lat="48.70799" lon="1.74552">
        <ele>176.60000610352</ele>
        <time>2015-01-27T11:04:54.000Z</time>
      </trkpt>
      <trkpt lat="48.70791" lon="1.74541">
        <ele>176.80000305176</ele>
        <time>2015-01-27T11:05:02.000Z</time>
      </trkpt>
      <trkpt lat="48.70783" lon="1.74529">
        <ele>176.80000305176</ele>
        <time>2015-01-27T11:05:10.000Z</time>
      </trkpt>
      <trkpt lat="48.70773" lon="1.74518">
        <ele>177</ele>
        <time>2015-01-27T11:05:19.000Z</time>
      </trkpt>
      <trkpt lat="48.70764" lon="1.74507">
        <ele>177.19999694824</ele>
        <time>2015-01-27T11:05:28.000Z</time>
      </trkpt>
      <trkpt lat="48.70755" lon="1.74495">
        <ele>177.60000610352</ele>
        <time>2015-01-27T11:05:37.000Z</time>
      </trkpt>
      <trkpt lat="48.70747" lon="1.74485">
        <ele>177.80000305176</ele>
        <time>2015-01-27T11:05:46.000Z</time>
      </trkpt>
      <trkpt lat="48.70737" lon="1.74475">
        <ele>178.39999389648</ele>
        <time>2015-01-27T11:05:55.000Z</time>
      </trkpt>
      <trkpt lat="48.7073" lon="1.74466">
        <ele>178.60000610352</ele>
        <time>2015-01-27T11:06:03.000Z</time>
      </trkpt>
      <trkpt lat="48.70729" lon="1.74461">
        <ele>178.80000305176</ele>
        <time>2015-01-27T11:06:06.000Z</time>
      </trkpt>
      <trkpt lat="48.70731" lon="1.74455">
        <ele>178.80000305176</ele>
        <time>2015-01-27T11:06:12.000Z</time>
      </trkpt>
      <trkpt lat="48.70738" lon="1.74448">
        <ele>178.60000610352</ele>
        <time>2015-01-27T11:06:59.000Z</time>
      </trkpt>
      <trkpt lat="48.70746" lon="1.74443">
        <ele>178.39999389648</ele>
        <time>2015-01-27T11:07:05.000Z</time>
      </trkpt>
      <trkpt lat="48.70749" lon="1.74442">
        <ele>178.39999389648</ele>
        <time>2015-01-27T11:07:07.000Z</time>
      </trkpt>
      <trkpt lat="48.7076" lon="1.74436">
        <ele>178</ele>
        <time>2015-01-27T11:07:16.000Z</time>
      </trkpt>
      <trkpt lat="48.7077" lon="1.74431">
        <ele>177.60000610352</ele>
        <time>2015-01-27T11:07:24.000Z</time>
      </trkpt>
      <trkpt lat="48.70776" lon="1.74429">
        <ele>177.60000610352</ele>
        <time>2015-01-27T11:07:30.000Z</time>
      </trkpt>
      <trkpt lat="48.70784" lon="1.74423">
        <ele>177.60000610352</ele>
        <time>2015-01-27T11:07:37.000Z</time>
      </trkpt>
      <trkpt lat="48.70791" lon="1.74417">
        <ele>177.60000610352</ele>
        <time>2015-01-27T11:07:43.000Z</time>
      </trkpt>
      <trkpt lat="48.70797" lon="1.74412">
        <ele>177.39999389648</ele>
        <time>2015-01-27T11:07:48.000Z</time>
      </trkpt>
      <trkpt lat="48.70802" lon="1.74408">
        <ele>177.19999694824</ele>
        <time>2015-01-27T11:07:52.000Z</time>
      </trkpt>
      <trkpt lat="48.70809" lon="1.74403">
        <ele>177</ele>
        <time>2015-01-27T11:07:58.000Z</time>
      </trkpt>
      <trkpt lat="48.70812" lon="1.74402">
        <ele>177</ele>
        <time>2015-01-27T11:08:00.000Z</time>
      </trkpt>
      <trkpt lat="48.70818" lon="1.74399">
        <ele>177</ele>
        <time>2015-01-27T11:08:05.000Z</time>
      </trkpt>
      <trkpt lat="48.70825" lon="1.74393">
        <ele>176.80000305176</ele>
        <time>2015-01-27T11:08:11.000Z</time>
      </trkpt>
      <trkpt lat="48.70833" lon="1.74385">
        <ele>176.80000305176</ele>
        <time>2015-01-27T11:08:18.000Z</time>
      </trkpt>
      <trkpt lat="48.70838" lon="1.74379">
        <ele>176.60000610352</ele>
        <time>2015-01-27T11:08:22.000Z</time>
      </trkpt>
      <trkpt lat="48.70842" lon="1.74372">
        <ele>176.60000610352</ele>
        <time>2015-01-27T11:08:28.000Z</time>
      </trkpt>
      <trkpt lat="48.70848" lon="1.74363">
        <ele>176.60000610352</ele>
        <time>2015-01-27T11:08:35.000Z</time>
      </trkpt>
      <trkpt lat="48.70853" lon="1.74354">
        <ele>176.60000610352</ele>
        <time>2015-01-27T11:08:41.000Z</time>
      </trkpt>
      <trkpt lat="48.70854" lon="1.74354">
        <ele>176.60000610352</ele>
        <time>2015-01-27T11:08:44.000Z</time>
      </trkpt>
      <trkpt lat="48.70863" lon="1.74336">
        <ele>176.60000610352</ele>
        <time>2015-01-27T11:08:59.000Z</time>
      </trkpt>
      <trkpt lat="48.70867" lon="1.74328">
        <ele>176.80000305176</ele>
        <time>2015-01-27T11:09:03.000Z</time>
      </trkpt>
      <trkpt lat="48.70869" lon="1.74323">
        <ele>176.80000305176</ele>
        <time>2015-01-27T11:09:06.000Z</time>
      </trkpt>
      <trkpt lat="48.70875" lon="1.74315">
        <ele>177</ele>
        <time>2015-01-27T11:09:14.000Z</time>
      </trkpt>
      <trkpt lat="48.70878" lon="1.74307">
        <ele>177.19999694824</ele>
        <time>2015-01-27T11:09:20.000Z</time>
      </trkpt>
      <trkpt lat="48.70882" lon="1.74296">
        <ele>177.60000610352</ele>
        <time>2015-01-27T11:09:25.000Z</time>
      </trkpt>
      <trkpt lat="48.70886" lon="1.7429">
        <ele>177.60000610352</ele>
        <time>2015-01-27T11:09:30.000Z</time>
      </trkpt>
      <trkpt lat="48.70891" lon="1.74284">
        <ele>177.80000305176</ele>
        <time>2015-01-27T11:09:35.000Z</time>
      </trkpt>
      <trkpt lat="48.70896" lon="1.74275">
        <ele>178.19999694824</ele>
        <time>2015-01-27T11:09:42.000Z</time>
      </trkpt>
      <trkpt lat="48.70899" lon="1.74266">
        <ele>178.80000305176</ele>
        <time>2015-01-27T11:09:47.000Z</time>
      </trkpt>
      <trkpt lat="48.70904" lon="1.74257">
        <ele>179.39999389648</ele>
        <time>2015-01-27T11:09:53.000Z</time>
      </trkpt>
      <trkpt lat="48.70906" lon="1.74244">
        <ele>180.19999694824</ele>
        <time>2015-01-27T11:10:00.000Z</time>
      </trkpt>
      <trkpt lat="48.70905" lon="1.74239">
        <ele>180.60000610352</ele>
        <time>2015-01-27T11:10:05.000Z</time>
      </trkpt>
      <trkpt lat="48.70905" lon="1.74238">
        <ele>180.60000610352</ele>
        <time>2015-01-27T11:10:07.000Z</time>
      </trkpt>
      <trkpt lat="48.70904" lon="1.74234">
        <ele>180.80000305176</ele>
        <time>2015-01-27T11:10:14.000Z</time>
      </trkpt>
      <trkpt lat="48.70904" lon="1.74233">
        <ele>180.80000305176</ele>
        <time>2015-01-27T11:10:15.000Z</time>
      </trkpt>
      <trkpt lat="48.70902" lon="1.74228">
        <ele>181</ele>
        <time>2015-01-27T11:10:20.000Z</time>
      </trkpt>
      <trkpt lat="48.70902" lon="1.74228">
        <ele>181</ele>
        <time>2015-01-27T11:10:22.000Z</time>
      </trkpt>
      <trkpt lat="48.70909" lon="1.74211">
        <ele>181.60000610352</ele>
        <time>2015-01-27T11:11:23.000Z</time>
      </trkpt>
      <trkpt lat="48.70909" lon="1.74197">
        <ele>182.19999694824</ele>
        <time>2015-01-27T11:11:29.000Z</time>
      </trkpt>
      <trkpt lat="48.70908" lon="1.74193">
        <ele>182.19999694824</ele>
        <time>2015-01-27T11:11:35.000Z</time>
      </trkpt>
      <trkpt lat="48.70914" lon="1.74163">
        <ele>183.39999389648</ele>
        <time>2015-01-27T11:11:59.000Z</time>
      </trkpt>
      <trkpt lat="48.70915" lon="1.74152">
        <ele>183.80000305176</ele>
        <time>2015-01-27T11:12:04.000Z</time>
      </trkpt>
      <trkpt lat="48.70917" lon="1.74146">
        <ele>183.80000305176</ele>
        <time>2015-01-27T11:12:08.000Z</time>
      </trkpt>
      <trkpt lat="48.70918" lon="1.74137">
        <ele>184</ele>
        <time>2015-01-27T11:12:13.000Z</time>
      </trkpt>
      <trkpt lat="48.7092" lon="1.74128">
        <ele>183.80000305176</ele>
        <time>2015-01-27T11:12:18.000Z</time>
      </trkpt>
      <trkpt lat="48.70921" lon="1.74125">
        <ele>183.80000305176</ele>
        <time>2015-01-27T11:12:22.000Z</time>
      </trkpt>
      <trkpt lat="48.70936" lon="1.74082">
        <ele>183.19999694824</ele>
        <time>2015-01-27T11:13:06.000Z</time>
      </trkpt>
      <trkpt lat="48.70939" lon="1.74068">
        <ele>183</ele>
        <time>2015-01-27T11:13:12.000Z</time>
      </trkpt>
      <trkpt lat="48.70941" lon="1.74054">
        <ele>183</ele>
        <time>2015-01-27T11:13:19.000Z</time>
      </trkpt>
      <trkpt lat="48.70946" lon="1.74039">
        <ele>183.19999694824</ele>
        <time>2015-01-27T11:13:27.000Z</time>
      </trkpt>
      <trkpt lat="48.70949" lon="1.74028">
        <ele>183.19999694824</ele>
        <time>2015-01-27T11:13:33.000Z</time>
      </trkpt>
      <trkpt lat="48.70953" lon="1.74025">
        <ele>183.19999694824</ele>
        <time>2015-01-27T11:13:38.000Z</time>
      </trkpt>
      <trkpt lat="48.70958" lon="1.74019">
        <ele>183.19999694824</ele>
        <time>2015-01-27T11:13:43.000Z</time>
      </trkpt>
      <trkpt lat="48.70962" lon="1.74007">
        <ele>183.19999694824</ele>
        <time>2015-01-27T11:13:50.000Z</time>
      </trkpt>
      <trkpt lat="48.70964" lon="1.73993">
        <ele>183.19999694824</ele>
        <time>2015-01-27T11:13:57.000Z</time>
      </trkpt>
      <trkpt lat="48.70965" lon="1.73982">
        <ele>183.19999694824</ele>
        <time>2015-01-27T11:14:03.000Z</time>
      </trkpt>
      <trkpt lat="48.70964" lon="1.73975">
        <ele>183.19999694824</ele>
        <time>2015-01-27T11:14:06.000Z</time>
      </trkpt>
      <trkpt lat="48.70966" lon="1.73962">
        <ele>183</ele>
        <time>2015-01-27T11:14:13.000Z</time>
      </trkpt>
      <trkpt lat="48.70966" lon="1.73961">
        <ele>183</ele>
        <time>2015-01-27T11:14:16.000Z</time>
      </trkpt>
      <trkpt lat="48.7097" lon="1.73949">
        <ele>182.80000305176</ele>
        <time>2015-01-27T11:14:30.000Z</time>
      </trkpt>
      <trkpt lat="48.70971" lon="1.73941">
        <ele>182.60000610352</ele>
        <time>2015-01-27T11:14:34.000Z</time>
      </trkpt>
      <trkpt lat="48.70976" lon="1.73925">
        <ele>183.19999694824</ele>
        <time>2015-01-27T11:14:44.000Z</time>
      </trkpt>
      <trkpt lat="48.7098" lon="1.73911">
        <ele>183.80000305176</ele>
        <time>2015-01-27T11:14:52.000Z</time>
      </trkpt>
      <trkpt lat="48.70985" lon="1.73898">
        <ele>184</ele>
        <time>2015-01-27T11:15:00.000Z</time>
      </trkpt>
      <trkpt lat="48.70986" lon="1.73892">
        <ele>183.80000305176</ele>
        <time>2015-01-27T11:15:03.000Z</time>
      </trkpt>
      <trkpt lat="48.70988" lon="1.73881">
        <ele>183.39999389648</ele>
        <time>2015-01-27T11:15:11.000Z</time>
      </trkpt>
      <trkpt lat="48.70988" lon="1.73878">
        <ele>183.19999694824</ele>
        <time>2015-01-27T11:15:13.000Z</time>
      </trkpt>
      <trkpt lat="48.70989" lon="1.73872">
        <ele>183</ele>
        <time>2015-01-27T11:15:17.000Z</time>
      </trkpt>
      <trkpt lat="48.70991" lon="1.73863">
        <ele>183</ele>
        <time>2015-01-27T11:15:24.000Z</time>
      </trkpt>
      <trkpt lat="48.70993" lon="1.73851">
        <ele>182.80000305176</ele>
        <time>2015-01-27T11:15:31.000Z</time>
      </trkpt>
      <trkpt lat="48.70997" lon="1.7384">
        <ele>182.60000610352</ele>
        <time>2015-01-27T11:15:38.000Z</time>
      </trkpt>
      <trkpt lat="48.71" lon="1.73825">
        <ele>182.39999389648</ele>
        <time>2015-01-27T11:15:46.000Z</time>
      </trkpt>
      <trkpt lat="48.71004" lon="1.73813">
        <ele>182.19999694824</ele>
        <time>2015-01-27T11:15:54.000Z</time>
      </trkpt>
      <trkpt lat="48.71011" lon="1.73803">
        <ele>182.19999694824</ele>
        <time>2015-01-27T11:16:02.000Z</time>
      </trkpt>
      <trkpt lat="48.71013" lon="1.73801">
        <ele>182.19999694824</ele>
        <time>2015-01-27T11:16:05.000Z</time>
      </trkpt>
      <trkpt lat="48.71017" lon="1.73792">
        <ele>182.19999694824</ele>
        <time>2015-01-27T11:16:13.000Z</time>
      </trkpt>
      <trkpt lat="48.7102" lon="1.73788">
        <ele>182.19999694824</ele>
        <time>2015-01-27T11:16:18.000Z</time>
      </trkpt>
      <trkpt lat="48.71024" lon="1.73786">
        <ele>182.19999694824</ele>
        <time>2015-01-27T11:16:23.000Z</time>
      </trkpt>
      <trkpt lat="48.7103" lon="1.73783">
        <ele>182</ele>
        <time>2015-01-27T11:16:30.000Z</time>
      </trkpt>
      <trkpt lat="48.71033" lon="1.73777">
        <ele>181.80000305176</ele>
        <time>2015-01-27T11:16:35.000Z</time>
      </trkpt>
      <trkpt lat="48.71039" lon="1.7377">
        <ele>181.60000610352</ele>
        <time>2015-01-27T11:16:42.000Z</time>
      </trkpt>
      <trkpt lat="48.71039" lon="1.73769">
        <ele>181.60000610352</ele>
        <time>2015-01-27T11:16:43.000Z</time>
      </trkpt>
      <trkpt lat="48.71046" lon="1.73761">
        <ele>181.39999389648</ele>
        <time>2015-01-27T11:16:51.000Z</time>
      </trkpt>
      <trkpt lat="48.71052" lon="1.73755">
        <ele>181.60000610352</ele>
        <time>2015-01-27T11:16:58.000Z</time>
      </trkpt>
      <trkpt lat="48.71054" lon="1.73753">
        <ele>181.60000610352</ele>
        <time>2015-01-27T11:17:00.000Z</time>
      </trkpt>
      <trkpt lat="48.71056" lon="1.73748">
        <ele>181.80000305176</ele>
        <time>2015-01-27T11:17:05.000Z</time>
      </trkpt>
      <trkpt lat="48.71065" lon="1.73737">
        <ele>182</ele>
        <time>2015-01-27T11:17:12.000Z</time>
      </trkpt>
      <trkpt lat="48.71068" lon="1.73735">
        <ele>182</ele>
        <time>2015-01-27T11:17:14.000Z</time>
      </trkpt>
      <trkpt lat="48.71075" lon="1.7373">
        <ele>182</ele>
        <time>2015-01-27T11:17:22.000Z</time>
      </trkpt>
      <trkpt lat="48.71082" lon="1.73721">
        <ele>181.80000305176</ele>
        <time>2015-01-27T11:17:30.000Z</time>
      </trkpt>
      <trkpt lat="48.71086" lon="1.73717">
        <ele>181.80000305176</ele>
        <time>2015-01-27T11:17:34.000Z</time>
      </trkpt>
      <trkpt lat="48.71091" lon="1.73713">
        <ele>181.60000610352</ele>
        <time>2015-01-27T11:17:39.000Z</time>
      </trkpt>
      <trkpt lat="48.71099" lon="1.73702">
        <ele>181.19999694824</ele>
        <time>2015-01-27T11:17:47.000Z</time>
      </trkpt>
      <trkpt lat="48.71109" lon="1.73691">
        <ele>180.80000305176</ele>
        <time>2015-01-27T11:17:55.000Z</time>
      </trkpt>
      <trkpt lat="48.71117" lon="1.73683">
        <ele>180.60000610352</ele>
        <time>2015-01-27T11:18:02.000Z</time>
      </trkpt>
      <trkpt lat="48.71124" lon="1.73675">
        <ele>180.19999694824</ele>
        <time>2015-01-27T11:18:09.000Z</time>
      </trkpt>
      <trkpt lat="48.71127" lon="1.73673">
        <ele>180.39999389648</ele>
        <time>2015-01-27T11:18:11.000Z</time>
      </trkpt>
      <trkpt lat="48.71134" lon="1.73666">
        <ele>180.60000610352</ele>
        <time>2015-01-27T11:18:17.000Z</time>
      </trkpt>
      <trkpt lat="48.71143" lon="1.73653">
        <ele>180.80000305176</ele>
        <time>2015-01-27T11:18:23.000Z</time>
      </trkpt>
      <trkpt lat="48.71151" lon="1.73647">
        <ele>181.19999694824</ele>
        <time>2015-01-27T11:18:30.000Z</time>
      </trkpt>
      <trkpt lat="48.71164" lon="1.73633">
        <ele>181.60000610352</ele>
        <time>2015-01-27T11:18:38.000Z</time>
      </trkpt>
      <trkpt lat="48.71165" lon="1.73633">
        <ele>181.80000305176</ele>
        <time>2015-01-27T11:18:39.000Z</time>
      </trkpt>
      <trkpt lat="48.71175" lon="1.73622">
        <ele>181.60000610352</ele>
        <time>2015-01-27T11:18:46.000Z</time>
      </trkpt>
      <trkpt lat="48.71176" lon="1.7362">
        <ele>181.60000610352</ele>
        <time>2015-01-27T11:18:47.000Z</time>
      </trkpt>
      <trkpt lat="48.71185" lon="1.73609">
        <ele>181.39999389648</ele>
        <time>2015-01-27T11:18:54.000Z</time>
      </trkpt>
      <trkpt lat="48.71192" lon="1.73602">
        <ele>181.19999694824</ele>
        <time>2015-01-27T11:19:00.000Z</time>
      </trkpt>
      <trkpt lat="48.71197" lon="1.73601">
        <ele>181.19999694824</ele>
        <time>2015-01-27T11:19:03.000Z</time>
      </trkpt>
      <trkpt lat="48.71205" lon="1.73609">
        <ele>181.39999389648</ele>
        <time>2015-01-27T11:19:09.000Z</time>
      </trkpt>
      <trkpt lat="48.71216" lon="1.73613">
        <ele>181.60000610352</ele>
        <time>2015-01-27T11:19:17.000Z</time>
      </trkpt>
      <trkpt lat="48.71224" lon="1.73615">
        <ele>181.60000610352</ele>
        <time>2015-01-27T11:19:22.000Z</time>
      </trkpt>
      <trkpt lat="48.71233" lon="1.73618">
        <ele>181.80000305176</ele>
        <time>2015-01-27T11:19:29.000Z</time>
      </trkpt>
      <trkpt lat="48.71239" lon="1.73621">
        <ele>182</ele>
        <time>2015-01-27T11:19:35.000Z</time>
      </trkpt>
      <trkpt lat="48.71246" lon="1.73621">
        <ele>182.19999694824</ele>
        <time>2015-01-27T11:19:40.000Z</time>
      </trkpt>
      <trkpt lat="48.71247" lon="1.73621">
        <ele>182.39999389648</ele>
        <time>2015-01-27T11:19:41.000Z</time>
      </trkpt>
      <trkpt lat="48.71252" lon="1.73619">
        <ele>182.80000305176</ele>
        <time>2015-01-27T11:19:45.000Z</time>
      </trkpt>
      <trkpt lat="48.71265" lon="1.73611">
        <ele>183.80000305176</ele>
        <time>2015-01-27T11:19:51.000Z</time>
      </trkpt>
      <trkpt lat="48.71274" lon="1.73601">
        <ele>183.60000610352</ele>
        <time>2015-01-27T11:19:58.000Z</time>
      </trkpt>
      <trkpt lat="48.71282" lon="1.73593">
        <ele>182.39999389648</ele>
        <time>2015-01-27T11:20:04.000Z</time>
      </trkpt>
      <trkpt lat="48.71288" lon="1.73584">
        <ele>181.60000610352</ele>
        <time>2015-01-27T11:20:11.000Z</time>
      </trkpt>
      <trkpt lat="48.71292" lon="1.73572">
        <ele>181.39999389648</ele>
        <time>2015-01-27T11:20:18.000Z</time>
      </trkpt>
      <trkpt lat="48.71295" lon="1.73562">
        <ele>180.80000305176</ele>
        <time>2015-01-27T11:20:24.000Z</time>
      </trkpt>
      <trkpt lat="48.71295" lon="1.73558">
        <ele>180.60000610352</ele>
        <time>2015-01-27T11:20:26.000Z</time>
      </trkpt>
      <trkpt lat="48.71296" lon="1.73553">
        <ele>180.39999389648</ele>
        <time>2015-01-27T11:20:30.000Z</time>
      </trkpt>
      <trkpt lat="48.71298" lon="1.73549">
        <ele>179.80000305176</ele>
        <time>2015-01-27T11:20:34.000Z</time>
      </trkpt>
      <trkpt lat="48.71308" lon="1.73535">
        <ele>177.80000305176</ele>
        <time>2015-01-27T11:20:42.000Z</time>
      </trkpt>
      <trkpt lat="48.71315" lon="1.73531">
        <ele>176.60000610352</ele>
        <time>2015-01-27T11:20:48.000Z</time>
      </trkpt>
      <trkpt lat="48.71322" lon="1.73525">
        <ele>176.60000610352</ele>
        <time>2015-01-27T11:20:55.000Z</time>
      </trkpt>
      <trkpt lat="48.71327" lon="1.73521">
        <ele>176.60000610352</ele>
        <time>2015-01-27T11:21:01.000Z</time>
      </trkpt>
      <trkpt lat="48.7133" lon="1.73521">
        <ele>176.39999389648</ele>
        <time>2015-01-27T11:21:04.000Z</time>
      </trkpt>
      <trkpt lat="48.71337" lon="1.73528">
        <ele>175.60000610352</ele>
        <time>2015-01-27T11:21:10.000Z</time>
      </trkpt>
      <trkpt lat="48.71339" lon="1.7353">
        <ele>175.19999694824</ele>
        <time>2015-01-27T11:21:12.000Z</time>
      </trkpt>
      <trkpt lat="48.71342" lon="1.73537">
        <ele>174.60000610352</ele>
        <time>2015-01-27T11:21:18.000Z</time>
      </trkpt>
      <trkpt lat="48.71347" lon="1.73543">
        <ele>174</ele>
        <time>2015-01-27T11:21:22.000Z</time>
      </trkpt>
      <trkpt lat="48.71348" lon="1.73545">
        <ele>173.80000305176</ele>
        <time>2015-01-27T11:21:24.000Z</time>
      </trkpt>
      <trkpt lat="48.71354" lon="1.73553">
        <ele>173</ele>
        <time>2015-01-27T11:21:30.000Z</time>
      </trkpt>
      <trkpt lat="48.71363" lon="1.7356">
        <ele>171.39999389648</ele>
        <time>2015-01-27T11:21:38.000Z</time>
      </trkpt>
      <trkpt lat="48.7137" lon="1.73569">
        <ele>170.19999694824</ele>
        <time>2015-01-27T11:21:45.000Z</time>
      </trkpt>
      <trkpt lat="48.71381" lon="1.73573">
        <ele>168.60000610352</ele>
        <time>2015-01-27T11:21:52.000Z</time>
      </trkpt>
      <trkpt lat="48.7139" lon="1.73572">
        <ele>167.60000610352</ele>
        <time>2015-01-27T11:21:59.000Z</time>
      </trkpt>
      <trkpt lat="48.71398" lon="1.73574">
        <ele>166.60000610352</ele>
        <time>2015-01-27T11:22:06.000Z</time>
      </trkpt>
      <trkpt lat="48.71407" lon="1.73573">
        <ele>165.39999389648</ele>
        <time>2015-01-27T11:22:13.000Z</time>
      </trkpt>
      <trkpt lat="48.71414" lon="1.73575">
        <ele>164.60000610352</ele>
        <time>2015-01-27T11:22:19.000Z</time>
      </trkpt>
      <trkpt lat="48.71423" lon="1.73576">
        <ele>163.39999389648</ele>
        <time>2015-01-27T11:22:26.000Z</time>
      </trkpt>
      <trkpt lat="48.71431" lon="1.73575">
        <ele>162.60000610352</ele>
        <time>2015-01-27T11:22:33.000Z</time>
      </trkpt>
      <trkpt lat="48.71438" lon="1.7357">
        <ele>161.80000305176</ele>
        <time>2015-01-27T11:22:39.000Z</time>
      </trkpt>
      <trkpt lat="48.71443" lon="1.73566">
        <ele>161.80000305176</ele>
        <time>2015-01-27T11:22:45.000Z</time>
      </trkpt>
      <trkpt lat="48.7145" lon="1.73562">
        <ele>161.39999389648</ele>
        <time>2015-01-27T11:22:51.000Z</time>
      </trkpt>
      <trkpt lat="48.71458" lon="1.73559">
        <ele>160.80000305176</ele>
        <time>2015-01-27T11:22:56.000Z</time>
      </trkpt>
      <trkpt lat="48.71467" lon="1.73558">
        <ele>160</ele>
        <time>2015-01-27T11:23:01.000Z</time>
      </trkpt>
      <trkpt lat="48.71477" lon="1.7356">
        <ele>159.19999694824</ele>
        <time>2015-01-27T11:23:09.000Z</time>
      </trkpt>
      <trkpt lat="48.71479" lon="1.73559">
        <ele>159</ele>
        <time>2015-01-27T11:23:10.000Z</time>
      </trkpt>
      <trkpt lat="48.71485" lon="1.73558">
        <ele>158.60000610352</ele>
        <time>2015-01-27T11:23:14.000Z</time>
      </trkpt>
      <trkpt lat="48.71493" lon="1.73554">
        <ele>158</ele>
        <time>2015-01-27T11:23:21.000Z</time>
      </trkpt>
      <trkpt lat="48.71495" lon="1.73554">
        <ele>158</ele>
        <time>2015-01-27T11:23:22.000Z</time>
      </trkpt>
      <trkpt lat="48.71505" lon="1.73552">
        <ele>157</ele>
        <time>2015-01-27T11:23:29.000Z</time>
      </trkpt>
      <trkpt lat="48.71511" lon="1.73552">
        <ele>156</ele>
        <time>2015-01-27T11:23:35.000Z</time>
      </trkpt>
      <trkpt lat="48.71519" lon="1.73549">
        <ele>154.39999389648</ele>
        <time>2015-01-27T11:23:45.000Z</time>
      </trkpt>
      <trkpt lat="48.71524" lon="1.73549">
        <ele>153.80000305176</ele>
        <time>2015-01-27T11:23:48.000Z</time>
      </trkpt>
      <trkpt lat="48.71529" lon="1.73549">
        <ele>153.19999694824</ele>
        <time>2015-01-27T11:23:52.000Z</time>
      </trkpt>
      <trkpt lat="48.71538" lon="1.73549">
        <ele>152</ele>
        <time>2015-01-27T11:23:59.000Z</time>
      </trkpt>
      <trkpt lat="48.71546" lon="1.73548">
        <ele>151.19999694824</ele>
        <time>2015-01-27T11:24:05.000Z</time>
      </trkpt>
      <trkpt lat="48.71553" lon="1.73547">
        <ele>150.19999694824</ele>
        <time>2015-01-27T11:24:11.000Z</time>
      </trkpt>
      <trkpt lat="48.71563" lon="1.73546">
        <ele>149</ele>
        <time>2015-01-27T11:24:20.000Z</time>
      </trkpt>
      <trkpt lat="48.71573" lon="1.73542">
        <ele>147.60000610352</ele>
        <time>2015-01-27T11:24:27.000Z</time>
      </trkpt>
      <trkpt lat="48.71581" lon="1.73541">
        <ele>146.80000305176</ele>
        <time>2015-01-27T11:24:34.000Z</time>
      </trkpt>
      <trkpt lat="48.71592" lon="1.73538">
        <ele>145.80000305176</ele>
        <time>2015-01-27T11:24:42.000Z</time>
      </trkpt>
      <trkpt lat="48.7162" lon="1.73528">
        <ele>143.39999389648</ele>
        <time>2015-01-27T11:24:48.000Z</time>
      </trkpt>
      <trkpt lat="48.71632" lon="1.73524">
        <ele>142.80000305176</ele>
        <time>2015-01-27T11:24:54.000Z</time>
      </trkpt>
      <trkpt lat="48.71636" lon="1.73522">
        <ele>142.39999389648</ele>
        <time>2015-01-27T11:24:56.000Z</time>
      </trkpt>
      <trkpt lat="48.71652" lon="1.73519">
        <ele>141.60000610352</ele>
        <time>2015-01-27T11:25:04.000Z</time>
      </trkpt>
      <trkpt lat="48.71659" lon="1.73518">
        <ele>141.39999389648</ele>
        <time>2015-01-27T11:25:09.000Z</time>
      </trkpt>
      <trkpt lat="48.71666" lon="1.73514">
        <ele>141</ele>
        <time>2015-01-27T11:25:14.000Z</time>
      </trkpt>
      <trkpt lat="48.71676" lon="1.73513">
        <ele>140.60000610352</ele>
        <time>2015-01-27T11:25:21.000Z</time>
      </trkpt>
      <trkpt lat="48.71684" lon="1.73513">
        <ele>140.19999694824</ele>
        <time>2015-01-27T11:25:28.000Z</time>
      </trkpt>
      <trkpt lat="48.71694" lon="1.73512">
        <ele>140</ele>
        <time>2015-01-27T11:25:36.000Z</time>
      </trkpt>
      <trkpt lat="48.71702" lon="1.73511">
        <ele>140</ele>
        <time>2015-01-27T11:25:43.000Z</time>
      </trkpt>
      <trkpt lat="48.7171" lon="1.73509">
        <ele>140</ele>
        <time>2015-01-27T11:25:49.000Z</time>
      </trkpt>
      <trkpt lat="48.71719" lon="1.73508">
        <ele>139.60000610352</ele>
        <time>2015-01-27T11:25:55.000Z</time>
      </trkpt>
      <trkpt lat="48.71734" lon="1.735">
        <ele>138.80000305176</ele>
        <time>2015-01-27T11:26:02.000Z</time>
      </trkpt>
      <trkpt lat="48.71748" lon="1.73492">
        <ele>138</ele>
        <time>2015-01-27T11:26:10.000Z</time>
      </trkpt>
      <trkpt lat="48.71752" lon="1.73479">
        <ele>137.60000610352</ele>
        <time>2015-01-27T11:26:17.000Z</time>
      </trkpt>
      <trkpt lat="48.7175" lon="1.73469">
        <ele>137.80000305176</ele>
        <time>2015-01-27T11:26:22.000Z</time>
      </trkpt>
      <trkpt lat="48.71747" lon="1.73451">
        <ele>137.80000305176</ele>
        <time>2015-01-27T11:26:31.000Z</time>
      </trkpt>
      <trkpt lat="48.71746" lon="1.73447">
        <ele>137.80000305176</ele>
        <time>2015-01-27T11:26:33.000Z</time>
      </trkpt>
      <trkpt lat="48.71742" lon="1.73431">
        <ele>138</ele>
        <time>2015-01-27T11:26:41.000Z</time>
      </trkpt>
      <trkpt lat="48.7174" lon="1.7342">
        <ele>138</ele>
        <time>2015-01-27T11:26:46.000Z</time>
      </trkpt>
      <trkpt lat="48.7174" lon="1.73411">
        <ele>138.19999694824</ele>
        <time>2015-01-27T11:26:50.000Z</time>
      </trkpt>
      <trkpt lat="48.71735" lon="1.73391">
        <ele>138</ele>
        <time>2015-01-27T11:26:59.000Z</time>
      </trkpt>
      <trkpt lat="48.71731" lon="1.73378">
        <ele>137.80000305176</ele>
        <time>2015-01-27T11:27:06.000Z</time>
      </trkpt>
      <trkpt lat="48.71726" lon="1.73359">
        <ele>137.60000610352</ele>
        <time>2015-01-27T11:27:15.000Z</time>
      </trkpt>
      <trkpt lat="48.71723" lon="1.73348">
        <ele>137.39999389648</ele>
        <time>2015-01-27T11:27:20.000Z</time>
      </trkpt>
      <trkpt lat="48.71719" lon="1.73331">
        <ele>137</ele>
        <time>2015-01-27T11:27:28.000Z</time>
      </trkpt>
      <trkpt lat="48.71714" lon="1.73312">
        <ele>137</ele>
        <time>2015-01-27T11:27:37.000Z</time>
      </trkpt>
      <trkpt lat="48.71709" lon="1.73298">
        <ele>137.19999694824</ele>
        <time>2015-01-27T11:27:44.000Z</time>
      </trkpt>
      <trkpt lat="48.71708" lon="1.73284">
        <ele>137.19999694824</ele>
        <time>2015-01-27T11:27:50.000Z</time>
      </trkpt>
      <trkpt lat="48.71707" lon="1.73276">
        <ele>137.19999694824</ele>
        <time>2015-01-27T11:27:54.000Z</time>
      </trkpt>
      <trkpt lat="48.71703" lon="1.73253">
        <ele>137.39999389648</ele>
        <time>2015-01-27T11:28:04.000Z</time>
      </trkpt>
      <trkpt lat="48.71702" lon="1.73235">
        <ele>137.19999694824</ele>
        <time>2015-01-27T11:28:12.000Z</time>
      </trkpt>
      <trkpt lat="48.717" lon="1.73217">
        <ele>137.19999694824</ele>
        <time>2015-01-27T11:28:21.000Z</time>
      </trkpt>
      <trkpt lat="48.71697" lon="1.73202">
        <ele>137</ele>
        <time>2015-01-27T11:28:28.000Z</time>
      </trkpt>
      <trkpt lat="48.71695" lon="1.73187">
        <ele>137</ele>
        <time>2015-01-27T11:28:35.000Z</time>
      </trkpt>
      <trkpt lat="48.71693" lon="1.73173">
        <ele>137</ele>
        <time>2015-01-27T11:28:42.000Z</time>
      </trkpt>
      <trkpt lat="48.71691" lon="1.73166">
        <ele>137</ele>
        <time>2015-01-27T11:28:46.000Z</time>
      </trkpt>
      <trkpt lat="48.7169" lon="1.73151">
        <ele>137</ele>
        <time>2015-01-27T11:28:54.000Z</time>
      </trkpt>
      <trkpt lat="48.71689" lon="1.73144">
        <ele>137.19999694824</ele>
        <time>2015-01-27T11:28:57.000Z</time>
      </trkpt>
      <trkpt lat="48.71686" lon="1.73128">
        <ele>137.60000610352</ele>
        <time>2015-01-27T11:29:04.000Z</time>
      </trkpt>
      <trkpt lat="48.71683" lon="1.73116">
        <ele>138</ele>
        <time>2015-01-27T11:29:10.000Z</time>
      </trkpt>
      <trkpt lat="48.71681" lon="1.731">
        <ele>138.39999389648</ele>
        <time>2015-01-27T11:29:18.000Z</time>
      </trkpt>
      <trkpt lat="48.71678" lon="1.73084">
        <ele>138.80000305176</ele>
        <time>2015-01-27T11:29:26.000Z</time>
      </trkpt>
      <trkpt lat="48.71676" lon="1.73063">
        <ele>139.39999389648</ele>
        <time>2015-01-27T11:29:36.000Z</time>
      </trkpt>
      <trkpt lat="48.71675" lon="1.73051">
        <ele>139.39999389648</ele>
        <time>2015-01-27T11:29:41.000Z</time>
      </trkpt>
      <trkpt lat="48.71673" lon="1.73041">
        <ele>139.39999389648</ele>
        <time>2015-01-27T11:29:46.000Z</time>
      </trkpt>
      <trkpt lat="48.71672" lon="1.73026">
        <ele>139.19999694824</ele>
        <time>2015-01-27T11:29:53.000Z</time>
      </trkpt>
      <trkpt lat="48.71669" lon="1.73013">
        <ele>139.19999694824</ele>
        <time>2015-01-27T11:29:59.000Z</time>
      </trkpt>
      <trkpt lat="48.71668" lon="1.73005">
        <ele>139.19999694824</ele>
        <time>2015-01-27T11:30:03.000Z</time>
      </trkpt>
      <trkpt lat="48.71663" lon="1.7299">
        <ele>139.19999694824</ele>
        <time>2015-01-27T11:30:10.000Z</time>
      </trkpt>
      <trkpt lat="48.71659" lon="1.72983">
        <ele>139.19999694824</ele>
        <time>2015-01-27T11:30:15.000Z</time>
      </trkpt>
      <trkpt lat="48.71656" lon="1.72966">
        <ele>139.19999694824</ele>
        <time>2015-01-27T11:30:23.000Z</time>
      </trkpt>
      <trkpt lat="48.71654" lon="1.72954">
        <ele>139.19999694824</ele>
        <time>2015-01-27T11:30:28.000Z</time>
      </trkpt>
      <trkpt lat="48.71654" lon="1.72952">
        <ele>139.19999694824</ele>
        <time>2015-01-27T11:30:29.000Z</time>
      </trkpt>
      <trkpt lat="48.71648" lon="1.72942">
        <ele>139.39999389648</ele>
        <time>2015-01-27T11:30:34.000Z</time>
      </trkpt>
      <trkpt lat="48.71644" lon="1.72931">
        <ele>139.39999389648</ele>
        <time>2015-01-27T11:30:37.000Z</time>
      </trkpt>
      <trkpt lat="48.71631" lon="1.72905">
        <ele>139.60000610352</ele>
        <time>2015-01-27T11:30:43.000Z</time>
      </trkpt>
      <trkpt lat="48.71624" lon="1.72889">
        <ele>139.80000305176</ele>
        <time>2015-01-27T11:30:47.000Z</time>
      </trkpt>
      <trkpt lat="48.71614" lon="1.72871">
        <ele>140.19999694824</ele>
        <time>2015-01-27T11:30:52.000Z</time>
      </trkpt>
      <trkpt lat="48.71598" lon="1.72842">
        <ele>140.60000610352</ele>
        <time>2015-01-27T11:30:59.000Z</time>
      </trkpt>
      <trkpt lat="48.71589" lon="1.72824">
        <ele>141</ele>
        <time>2015-01-27T11:31:03.000Z</time>
      </trkpt>
      <trkpt lat="48.71576" lon="1.72796">
        <ele>142</ele>
        <time>2015-01-27T11:31:09.000Z</time>
      </trkpt>
      <trkpt lat="48.71566" lon="1.72774">
        <ele>142.80000305176</ele>
        <time>2015-01-27T11:31:14.000Z</time>
      </trkpt>
      <trkpt lat="48.71559" lon="1.72752">
        <ele>143.39999389648</ele>
        <time>2015-01-27T11:31:19.000Z</time>
      </trkpt>
      <trkpt lat="48.71547" lon="1.72724">
        <ele>144.19999694824</ele>
        <time>2015-01-27T11:31:26.000Z</time>
      </trkpt>
      <trkpt lat="48.71536" lon="1.727">
        <ele>144.19999694824</ele>
        <time>2015-01-27T11:31:32.000Z</time>
      </trkpt>
      <trkpt lat="48.71523" lon="1.72662">
        <ele>144</ele>
        <time>2015-01-27T11:31:40.000Z</time>
      </trkpt>
      <trkpt lat="48.71514" lon="1.72633">
        <ele>143.80000305176</ele>
        <time>2015-01-27T11:31:46.000Z</time>
      </trkpt>
      <trkpt lat="48.71508" lon="1.72602">
        <ele>143.60000610352</ele>
        <time>2015-01-27T11:31:52.000Z</time>
      </trkpt>
      <trkpt lat="48.71504" lon="1.72574">
        <ele>143</ele>
        <time>2015-01-27T11:31:57.000Z</time>
      </trkpt>
      <trkpt lat="48.71498" lon="1.7254">
        <ele>143</ele>
        <time>2015-01-27T11:32:03.000Z</time>
      </trkpt>
      <trkpt lat="48.71496" lon="1.72511">
        <ele>142.80000305176</ele>
        <time>2015-01-27T11:32:08.000Z</time>
      </trkpt>
      <trkpt lat="48.71493" lon="1.7248">
        <ele>142.39999389648</ele>
        <time>2015-01-27T11:32:14.000Z</time>
      </trkpt>
      <trkpt lat="48.7149" lon="1.72458">
        <ele>142</ele>
        <time>2015-01-27T11:32:18.000Z</time>
      </trkpt>
      <trkpt lat="48.71489" lon="1.72425">
        <ele>141.39999389648</ele>
        <time>2015-01-27T11:32:24.000Z</time>
      </trkpt>
      <trkpt lat="48.71485" lon="1.72393">
        <ele>140.80000305176</ele>
        <time>2015-01-27T11:32:30.000Z</time>
      </trkpt>
      <trkpt lat="48.71485" lon="1.72361">
        <ele>140.19999694824</ele>
        <time>2015-01-27T11:32:36.000Z</time>
      </trkpt>
      <trkpt lat="48.71487" lon="1.72338">
        <ele>139.80000305176</ele>
        <time>2015-01-27T11:32:41.000Z</time>
      </trkpt>
      <trkpt lat="48.71488" lon="1.72317">
        <ele>139.60000610352</ele>
        <time>2015-01-27T11:32:45.000Z</time>
      </trkpt>
      <trkpt lat="48.71485" lon="1.72279">
        <ele>140</ele>
        <time>2015-01-27T11:32:52.000Z</time>
      </trkpt>
      <trkpt lat="48.71478" lon="1.72249">
        <ele>140.19999694824</ele>
        <time>2015-01-27T11:32:58.000Z</time>
      </trkpt>
      <trkpt lat="48.71471" lon="1.72226">
        <ele>141</ele>
        <time>2015-01-27T11:33:03.000Z</time>
      </trkpt>
      <trkpt lat="48.71466" lon="1.72208">
        <ele>142.19999694824</ele>
        <time>2015-01-27T11:33:07.000Z</time>
      </trkpt>
      <trkpt lat="48.71458" lon="1.7219">
        <ele>143.60000610352</ele>
        <time>2015-01-27T11:33:13.000Z</time>
      </trkpt>
      <trkpt lat="48.71449" lon="1.72184">
        <ele>144.60000610352</ele>
        <time>2015-01-27T11:33:20.000Z</time>
      </trkpt>
      <trkpt lat="48.71445" lon="1.72184">
        <ele>145</ele>
        <time>2015-01-27T11:33:25.000Z</time>
      </trkpt>
      <trkpt lat="48.7144" lon="1.72183">
        <ele>145.39999389648</ele>
        <time>2015-01-27T11:33:33.000Z</time>
      </trkpt>
      <trkpt lat="48.71436" lon="1.72176">
        <ele>146.19999694824</ele>
        <time>2015-01-27T11:33:37.000Z</time>
      </trkpt>
      <trkpt lat="48.71431" lon="1.72165">
        <ele>147.60000610352</ele>
        <time>2015-01-27T11:33:43.000Z</time>
      </trkpt>
      <trkpt lat="48.71428" lon="1.72152">
        <ele>148.60000610352</ele>
        <time>2015-01-27T11:33:49.000Z</time>
      </trkpt>
      <trkpt lat="48.71427" lon="1.7214">
        <ele>147.80000305176</ele>
        <time>2015-01-27T11:33:54.000Z</time>
      </trkpt>
      <trkpt lat="48.71426" lon="1.72132">
        <ele>147.39999389648</ele>
        <time>2015-01-27T11:33:58.000Z</time>
      </trkpt>
      <trkpt lat="48.71422" lon="1.72112">
        <ele>147</ele>
        <time>2015-01-27T11:34:08.000Z</time>
      </trkpt>
      <trkpt lat="48.7142" lon="1.72105">
        <ele>147.19999694824</ele>
        <time>2015-01-27T11:34:11.000Z</time>
      </trkpt>
      <trkpt lat="48.71417" lon="1.72097">
        <ele>147.19999694824</ele>
        <time>2015-01-27T11:34:16.000Z</time>
      </trkpt>
      <trkpt lat="48.71416" lon="1.72097">
        <ele>147.39999389648</ele>
        <time>2015-01-27T11:34:17.000Z</time>
      </trkpt>
      <trkpt lat="48.71412" lon="1.72091">
        <ele>147.60000610352</ele>
        <time>2015-01-27T11:34:22.000Z</time>
      </trkpt>
      <trkpt lat="48.71412" lon="1.72088">
        <ele>147.39999389648</ele>
        <time>2015-01-27T11:34:25.000Z</time>
      </trkpt>
      <trkpt lat="48.71412" lon="1.72081">
        <ele>147.19999694824</ele>
        <time>2015-01-27T11:34:31.000Z</time>
      </trkpt>
      <trkpt lat="48.71411" lon="1.72074">
        <ele>147</ele>
        <time>2015-01-27T11:34:35.000Z</time>
      </trkpt>
      <trkpt lat="48.7141" lon="1.72072">
        <ele>147</ele>
        <time>2015-01-27T11:34:36.000Z</time>
      </trkpt>
      <trkpt lat="48.71407" lon="1.72065">
        <ele>146.80000305176</ele>
        <time>2015-01-27T11:34:40.000Z</time>
      </trkpt>
      <trkpt lat="48.71397" lon="1.72046">
        <ele>146.80000305176</ele>
        <time>2015-01-27T11:34:46.000Z</time>
      </trkpt>
      <trkpt lat="48.71381" lon="1.72028">
        <ele>147.60000610352</ele>
        <time>2015-01-27T11:34:52.000Z</time>
      </trkpt>
      <trkpt lat="48.71367" lon="1.72012">
        <ele>148.19999694824</ele>
        <time>2015-01-27T11:34:57.000Z</time>
      </trkpt>
      <trkpt lat="48.71348" lon="1.71995">
        <ele>149.19999694824</ele>
        <time>2015-01-27T11:35:03.000Z</time>
      </trkpt>
      <trkpt lat="48.71329" lon="1.71973">
        <ele>150.60000610352</ele>
        <time>2015-01-27T11:35:10.000Z</time>
      </trkpt>
      <trkpt lat="48.71316" lon="1.71958">
        <ele>152.39999389648</ele>
        <time>2015-01-27T11:35:15.000Z</time>
      </trkpt>
      <trkpt lat="48.71312" lon="1.71937">
        <ele>153</ele>
        <time>2015-01-27T11:35:19.000Z</time>
      </trkpt>
      <trkpt lat="48.71313" lon="1.71906">
        <ele>152.80000305176</ele>
        <time>2015-01-27T11:35:25.000Z</time>
      </trkpt>
      <trkpt lat="48.71317" lon="1.71871">
        <ele>153.60000610352</ele>
        <time>2015-01-27T11:35:32.000Z</time>
      </trkpt>
      <trkpt lat="48.71325" lon="1.71849">
        <ele>153.19999694824</ele>
        <time>2015-01-27T11:35:37.000Z</time>
      </trkpt>
      <trkpt lat="48.71328" lon="1.71819">
        <ele>153.19999694824</ele>
        <time>2015-01-27T11:35:43.000Z</time>
      </trkpt>
      <trkpt lat="48.71325" lon="1.71791">
        <ele>151.39999389648</ele>
        <time>2015-01-27T11:35:49.000Z</time>
      </trkpt>
      <trkpt lat="48.7132" lon="1.71753">
        <ele>150.39999389648</ele>
        <time>2015-01-27T11:35:56.000Z</time>
      </trkpt>
      <trkpt lat="48.71318" lon="1.71707">
        <ele>148.60000610352</ele>
        <time>2015-01-27T11:36:05.000Z</time>
      </trkpt>
      <trkpt lat="48.71318" lon="1.71676">
        <ele>148</ele>
        <time>2015-01-27T11:36:11.000Z</time>
      </trkpt>
      <trkpt lat="48.71317" lon="1.71657">
        <ele>147.80000305176</ele>
        <time>2015-01-27T11:36:15.000Z</time>
      </trkpt>
      <trkpt lat="48.71315" lon="1.71628">
        <ele>147.19999694824</ele>
        <time>2015-01-27T11:36:21.000Z</time>
      </trkpt>
      <trkpt lat="48.71314" lon="1.716">
        <ele>146.39999389648</ele>
        <time>2015-01-27T11:36:26.000Z</time>
      </trkpt>
      <trkpt lat="48.71315" lon="1.71558">
        <ele>145</ele>
        <time>2015-01-27T11:36:33.000Z</time>
      </trkpt>
      <trkpt lat="48.71313" lon="1.71513">
        <ele>144.19999694824</ele>
        <time>2015-01-27T11:36:40.000Z</time>
      </trkpt>
      <trkpt lat="48.71313" lon="1.71491">
        <ele>144</ele>
        <time>2015-01-27T11:36:44.000Z</time>
      </trkpt>
      <trkpt lat="48.71308" lon="1.71477">
        <ele>144.19999694824</ele>
        <time>2015-01-27T11:36:48.000Z</time>
      </trkpt>
      <trkpt lat="48.71306" lon="1.71465">
        <ele>144.19999694824</ele>
        <time>2015-01-27T11:36:54.000Z</time>
      </trkpt>
      <trkpt lat="48.71302" lon="1.71448">
        <ele>144.39999389648</ele>
        <time>2015-01-27T11:37:02.000Z</time>
      </trkpt>
      <trkpt lat="48.713" lon="1.71436">
        <ele>144.60000610352</ele>
        <time>2015-01-27T11:37:07.000Z</time>
      </trkpt>
      <trkpt lat="48.71297" lon="1.71414">
        <ele>144.60000610352</ele>
        <time>2015-01-27T11:37:16.000Z</time>
      </trkpt>
      <trkpt lat="48.71296" lon="1.71395">
        <ele>144.19999694824</ele>
        <time>2015-01-27T11:37:24.000Z</time>
      </trkpt>
      <trkpt lat="48.71294" lon="1.71379">
        <ele>144</ele>
        <time>2015-01-27T11:37:31.000Z</time>
      </trkpt>
      <trkpt lat="48.71294" lon="1.71377">
        <ele>144</ele>
        <time>2015-01-27T11:37:32.000Z</time>
      </trkpt>
      <trkpt lat="48.71293" lon="1.7137">
        <ele>143.80000305176</ele>
        <time>2015-01-27T11:37:36.000Z</time>
      </trkpt>
      <trkpt lat="48.71293" lon="1.71361">
        <ele>143.60000610352</ele>
        <time>2015-01-27T11:37:41.000Z</time>
      </trkpt>
      <trkpt lat="48.71292" lon="1.71355">
        <ele>143.60000610352</ele>
        <time>2015-01-27T11:37:44.000Z</time>
      </trkpt>
      <trkpt lat="48.71289" lon="1.71346">
        <ele>143.60000610352</ele>
        <time>2015-01-27T11:37:49.000Z</time>
      </trkpt>
      <trkpt lat="48.71285" lon="1.71334">
        <ele>143.39999389648</ele>
        <time>2015-01-27T11:37:56.000Z</time>
      </trkpt>
      <trkpt lat="48.71285" lon="1.71324">
        <ele>143.39999389648</ele>
        <time>2015-01-27T11:38:02.000Z</time>
      </trkpt>
      <trkpt lat="48.71285" lon="1.71323">
        <ele>143.39999389648</ele>
        <time>2015-01-27T11:38:04.000Z</time>
      </trkpt>
      <trkpt lat="48.71284" lon="1.71314">
        <ele>143.19999694824</ele>
        <time>2015-01-27T11:38:14.000Z</time>
      </trkpt>
      <trkpt lat="48.71283" lon="1.71302">
        <ele>143</ele>
        <time>2015-01-27T11:38:19.000Z</time>
      </trkpt>
      <trkpt lat="48.7128" lon="1.71293">
        <ele>142.80000305176</ele>
        <time>2015-01-27T11:38:24.000Z</time>
      </trkpt>
      <trkpt lat="48.71278" lon="1.71286">
        <ele>142.80000305176</ele>
        <time>2015-01-27T11:38:27.000Z</time>
      </trkpt>
      <trkpt lat="48.71275" lon="1.71272">
        <ele>142.60000610352</ele>
        <time>2015-01-27T11:38:34.000Z</time>
      </trkpt>
      <trkpt lat="48.71274" lon="1.71261">
        <ele>142.39999389648</ele>
        <time>2015-01-27T11:38:39.000Z</time>
      </trkpt>
      <trkpt lat="48.71273" lon="1.71246">
        <ele>142</ele>
        <time>2015-01-27T11:38:43.000Z</time>
      </trkpt>
      <trkpt lat="48.71275" lon="1.71213">
        <ele>141.80000305176</ele>
        <time>2015-01-27T11:38:49.000Z</time>
      </trkpt>
      <trkpt lat="48.71272" lon="1.71191">
        <ele>142</ele>
        <time>2015-01-27T11:38:53.000Z</time>
      </trkpt>
      <trkpt lat="48.71269" lon="1.71158">
        <ele>142</ele>
        <time>2015-01-27T11:38:58.000Z</time>
      </trkpt>
      <trkpt lat="48.7126" lon="1.71123">
        <ele>142.60000610352</ele>
        <time>2015-01-27T11:39:04.000Z</time>
      </trkpt>
      <trkpt lat="48.71249" lon="1.71094">
        <ele>143.60000610352</ele>
        <time>2015-01-27T11:39:10.000Z</time>
      </trkpt>
      <trkpt lat="48.71234" lon="1.71062">
        <ele>144.80000305176</ele>
        <time>2015-01-27T11:39:17.000Z</time>
      </trkpt>
      <trkpt lat="48.71219" lon="1.71032">
        <ele>146</ele>
        <time>2015-01-27T11:39:23.000Z</time>
      </trkpt>
      <trkpt lat="48.71212" lon="1.7101">
        <ele>146.60000610352</ele>
        <time>2015-01-27T11:39:27.000Z</time>
      </trkpt>
      <trkpt lat="48.71209" lon="1.70987">
        <ele>147.39999389648</ele>
        <time>2015-01-27T11:39:31.000Z</time>
      </trkpt>
      <trkpt lat="48.71209" lon="1.70945">
        <ele>148.39999389648</ele>
        <time>2015-01-27T11:39:38.000Z</time>
      </trkpt>
      <trkpt lat="48.71212" lon="1.70928">
        <ele>148.60000610352</ele>
        <time>2015-01-27T11:39:42.000Z</time>
      </trkpt>
      <trkpt lat="48.7121" lon="1.7091">
        <ele>148.80000305176</ele>
        <time>2015-01-27T11:39:47.000Z</time>
      </trkpt>
      <trkpt lat="48.71208" lon="1.70881">
        <ele>150</ele>
        <time>2015-01-27T11:39:52.000Z</time>
      </trkpt>
      <trkpt lat="48.71212" lon="1.70853">
        <ele>151</ele>
        <time>2015-01-27T11:39:57.000Z</time>
      </trkpt>
      <trkpt lat="48.71216" lon="1.70829">
        <ele>151.80000305176</ele>
        <time>2015-01-27T11:40:02.000Z</time>
      </trkpt>
      <trkpt lat="48.71217" lon="1.70801">
        <ele>151.60000610352</ele>
        <time>2015-01-27T11:40:08.000Z</time>
      </trkpt>
      <trkpt lat="48.71216" lon="1.70764">
        <ele>151</ele>
        <time>2015-01-27T11:40:16.000Z</time>
      </trkpt>
      <trkpt lat="48.71216" lon="1.70728">
        <ele>151</ele>
        <time>2015-01-27T11:40:23.000Z</time>
      </trkpt>
      <trkpt lat="48.7122" lon="1.70685">
        <ele>150.60000610352</ele>
        <time>2015-01-27T11:40:31.000Z</time>
      </trkpt>
      <trkpt lat="48.71221" lon="1.70647">
        <ele>150.60000610352</ele>
        <time>2015-01-27T11:40:38.000Z</time>
      </trkpt>
      <trkpt lat="48.71217" lon="1.70613">
        <ele>150.80000305176</ele>
        <time>2015-01-27T11:40:45.000Z</time>
      </trkpt>
      <trkpt lat="48.7121" lon="1.70587">
        <ele>151.19999694824</ele>
        <time>2015-01-27T11:40:50.000Z</time>
      </trkpt>
      <trkpt lat="48.71204" lon="1.70567">
        <ele>151.39999389648</ele>
        <time>2015-01-27T11:40:54.000Z</time>
      </trkpt>
      <trkpt lat="48.71194" lon="1.70535">
        <ele>151.19999694824</ele>
        <time>2015-01-27T11:41:00.000Z</time>
      </trkpt>
      <trkpt lat="48.71189" lon="1.70503">
        <ele>150.39999389648</ele>
        <time>2015-01-27T11:41:06.000Z</time>
      </trkpt>
      <trkpt lat="48.71189" lon="1.70491">
        <ele>150</ele>
        <time>2015-01-27T11:41:09.000Z</time>
      </trkpt>
      <trkpt lat="48.71182" lon="1.70473">
        <ele>149.19999694824</ele>
        <time>2015-01-27T11:41:13.000Z</time>
      </trkpt>
      <trkpt lat="48.71175" lon="1.70459">
        <ele>148.19999694824</ele>
        <time>2015-01-27T11:41:16.000Z</time>
      </trkpt>
      <trkpt lat="48.71168" lon="1.70439">
        <ele>146.80000305176</ele>
        <time>2015-01-27T11:41:20.000Z</time>
      </trkpt>
      <trkpt lat="48.71161" lon="1.70412">
        <ele>145.19999694824</ele>
        <time>2015-01-27T11:41:25.000Z</time>
      </trkpt>
      <trkpt lat="48.71157" lon="1.70376">
        <ele>146.39999389648</ele>
        <time>2015-01-27T11:41:31.000Z</time>
      </trkpt>
      <trkpt lat="48.71159" lon="1.70337">
        <ele>146.39999389648</ele>
        <time>2015-01-27T11:41:38.000Z</time>
      </trkpt>
      <trkpt lat="48.71158" lon="1.70324">
        <ele>146.39999389648</ele>
        <time>2015-01-27T11:41:43.000Z</time>
      </trkpt>
      <trkpt lat="48.71158" lon="1.70312">
        <ele>146.60000610352</ele>
        <time>2015-01-27T11:41:48.000Z</time>
      </trkpt>
      <trkpt lat="48.71157" lon="1.70306">
        <ele>147</ele>
        <time>2015-01-27T11:41:52.000Z</time>
      </trkpt>
      <trkpt lat="48.71157" lon="1.70303">
        <ele>147</ele>
        <time>2015-01-27T11:41:54.000Z</time>
      </trkpt>
      <trkpt lat="48.71158" lon="1.70296">
        <ele>147.19999694824</ele>
        <time>2015-01-27T11:41:58.000Z</time>
      </trkpt>
      <trkpt lat="48.7116" lon="1.70288">
        <ele>147.39999389648</ele>
        <time>2015-01-27T11:42:02.000Z</time>
      </trkpt>
      <trkpt lat="48.71162" lon="1.70282">
        <ele>147.39999389648</ele>
        <time>2015-01-27T11:42:06.000Z</time>
      </trkpt>
      <trkpt lat="48.71167" lon="1.70269">
        <ele>147.39999389648</ele>
        <time>2015-01-27T11:42:13.000Z</time>
      </trkpt>
      <trkpt lat="48.71167" lon="1.70264">
        <ele>147.60000610352</ele>
        <time>2015-01-27T11:42:15.000Z</time>
      </trkpt>
      <trkpt lat="48.71175" lon="1.70245">
        <ele>147.60000610352</ele>
        <time>2015-01-27T11:42:22.000Z</time>
      </trkpt>
      <trkpt lat="48.71181" lon="1.70223">
        <ele>147.60000610352</ele>
        <time>2015-01-27T11:42:27.000Z</time>
      </trkpt>
      <trkpt lat="48.71191" lon="1.70195">
        <ele>147.19999694824</ele>
        <time>2015-01-27T11:42:32.000Z</time>
      </trkpt>
      <trkpt lat="48.71193" lon="1.70163">
        <ele>147.19999694824</ele>
        <time>2015-01-27T11:42:37.000Z</time>
      </trkpt>
      <trkpt lat="48.71199" lon="1.70126">
        <ele>147</ele>
        <time>2015-01-27T11:42:43.000Z</time>
      </trkpt>
      <trkpt lat="48.71211" lon="1.70094">
        <ele>146.19999694824</ele>
        <time>2015-01-27T11:42:48.000Z</time>
      </trkpt>
      <trkpt lat="48.71216" lon="1.70076">
        <ele>146.39999389648</ele>
        <time>2015-01-27T11:42:51.000Z</time>
      </trkpt>
      <trkpt lat="48.71218" lon="1.70063">
        <ele>146.39999389648</ele>
        <time>2015-01-27T11:42:53.000Z</time>
      </trkpt>
      <trkpt lat="48.71222" lon="1.70047">
        <ele>146.19999694824</ele>
        <time>2015-01-27T11:42:56.000Z</time>
      </trkpt>
      <trkpt lat="48.71225" lon="1.70036">
        <ele>146.19999694824</ele>
        <time>2015-01-27T11:42:58.000Z</time>
      </trkpt>
      <trkpt lat="48.71227" lon="1.70005">
        <ele>146.80000305176</ele>
        <time>2015-01-27T11:43:03.000Z</time>
      </trkpt>
      <trkpt lat="48.7123" lon="1.69968">
        <ele>147.39999389648</ele>
        <time>2015-01-27T11:43:09.000Z</time>
      </trkpt>
      <trkpt lat="48.71229" lon="1.69934">
        <ele>147.60000610352</ele>
        <time>2015-01-27T11:43:15.000Z</time>
      </trkpt>
      <trkpt lat="48.7123" lon="1.69928">
        <ele>147.60000610352</ele>
        <time>2015-01-27T11:43:16.000Z</time>
      </trkpt>
      <trkpt lat="48.71232" lon="1.69886">
        <ele>147.80000305176</ele>
        <time>2015-01-27T11:43:23.000Z</time>
      </trkpt>
      <trkpt lat="48.71234" lon="1.69846">
        <ele>148</ele>
        <time>2015-01-27T11:43:30.000Z</time>
      </trkpt>
      <trkpt lat="48.71238" lon="1.69806">
        <ele>148</ele>
        <time>2015-01-27T11:43:37.000Z</time>
      </trkpt>
      <trkpt lat="48.71245" lon="1.69768">
        <ele>148</ele>
        <time>2015-01-27T11:43:44.000Z</time>
      </trkpt>
      <trkpt lat="48.71251" lon="1.69737">
        <ele>148.19999694824</ele>
        <time>2015-01-27T11:43:50.000Z</time>
      </trkpt>
      <trkpt lat="48.71256" lon="1.697">
        <ele>150.19999694824</ele>
        <time>2015-01-27T11:43:57.000Z</time>
      </trkpt>
      <trkpt lat="48.71261" lon="1.6967">
        <ele>151</ele>
        <time>2015-01-27T11:44:04.000Z</time>
      </trkpt>
      <trkpt lat="48.71262" lon="1.69662">
        <ele>151.19999694824</ele>
        <time>2015-01-27T11:44:08.000Z</time>
      </trkpt>
      <trkpt lat="48.71263" lon="1.69654">
        <ele>151.39999389648</ele>
        <time>2015-01-27T11:44:12.000Z</time>
      </trkpt>
      <trkpt lat="48.71266" lon="1.69645">
        <ele>151.60000610352</ele>
        <time>2015-01-27T11:44:17.000Z</time>
      </trkpt>
      <trkpt lat="48.71267" lon="1.69643">
        <ele>151.60000610352</ele>
        <time>2015-01-27T11:44:18.000Z</time>
      </trkpt>
      <trkpt lat="48.71269" lon="1.69636">
        <ele>151.80000305176</ele>
        <time>2015-01-27T11:44:21.000Z</time>
      </trkpt>
      <trkpt lat="48.71272" lon="1.69629">
        <ele>151.80000305176</ele>
        <time>2015-01-27T11:44:25.000Z</time>
      </trkpt>
      <trkpt lat="48.71274" lon="1.69615">
        <ele>152.19999694824</ele>
        <time>2015-01-27T11:44:31.000Z</time>
      </trkpt>
      <trkpt lat="48.71274" lon="1.69599">
        <ele>152.80000305176</ele>
        <time>2015-01-27T11:44:38.000Z</time>
      </trkpt>
      <trkpt lat="48.71275" lon="1.69584">
        <ele>153.39999389648</ele>
        <time>2015-01-27T11:44:45.000Z</time>
      </trkpt>
      <trkpt lat="48.71275" lon="1.69569">
        <ele>153.80000305176</ele>
        <time>2015-01-27T11:44:52.000Z</time>
      </trkpt>
      <trkpt lat="48.71276" lon="1.69557">
        <ele>153.39999389648</ele>
        <time>2015-01-27T11:44:58.000Z</time>
      </trkpt>
      <trkpt lat="48.71277" lon="1.6954">
        <ele>152.80000305176</ele>
        <time>2015-01-27T11:45:05.000Z</time>
      </trkpt>
      <trkpt lat="48.71277" lon="1.69534">
        <ele>152.80000305176</ele>
        <time>2015-01-27T11:45:08.000Z</time>
      </trkpt>
      <trkpt lat="48.7128" lon="1.69525">
        <ele>152.39999389648</ele>
        <time>2015-01-27T11:45:13.000Z</time>
      </trkpt>
      <trkpt lat="48.71283" lon="1.69516">
        <ele>152</ele>
        <time>2015-01-27T11:45:17.000Z</time>
      </trkpt>
      <trkpt lat="48.71284" lon="1.69499">
        <ele>151.39999389648</ele>
        <time>2015-01-27T11:45:25.000Z</time>
      </trkpt>
      <trkpt lat="48.71284" lon="1.69493">
        <ele>151.19999694824</ele>
        <time>2015-01-27T11:45:27.000Z</time>
      </trkpt>
      <trkpt lat="48.71288" lon="1.6948">
        <ele>150</ele>
        <time>2015-01-27T11:45:33.000Z</time>
      </trkpt>
      <trkpt lat="48.71289" lon="1.69466">
        <ele>148.80000305176</ele>
        <time>2015-01-27T11:45:39.000Z</time>
      </trkpt>
      <trkpt lat="48.7129" lon="1.69461">
        <ele>148.19999694824</ele>
        <time>2015-01-27T11:45:41.000Z</time>
      </trkpt>
      <trkpt lat="48.71291" lon="1.6945">
        <ele>147.19999694824</ele>
        <time>2015-01-27T11:45:46.000Z</time>
      </trkpt>
      <trkpt lat="48.71295" lon="1.69428">
        <ele>145</ele>
        <time>2015-01-27T11:45:55.000Z</time>
      </trkpt>
      <trkpt lat="48.71299" lon="1.6941">
        <ele>144</ele>
        <time>2015-01-27T11:46:03.000Z</time>
      </trkpt>
      <trkpt lat="48.71303" lon="1.69398">
        <ele>143.39999389648</ele>
        <time>2015-01-27T11:46:09.000Z</time>
      </trkpt>
      <trkpt lat="48.71306" lon="1.69384">
        <ele>143</ele>
        <time>2015-01-27T11:46:15.000Z</time>
      </trkpt>
      <trkpt lat="48.71307" lon="1.69377">
        <ele>143</ele>
        <time>2015-01-27T11:46:18.000Z</time>
      </trkpt>
      <trkpt lat="48.7131" lon="1.6937">
        <ele>142.80000305176</ele>
        <time>2015-01-27T11:46:22.000Z</time>
      </trkpt>
      <trkpt lat="48.71312" lon="1.69354">
        <ele>142.19999694824</ele>
        <time>2015-01-27T11:46:29.000Z</time>
      </trkpt>
      <trkpt lat="48.71312" lon="1.69349">
        <ele>141.80000305176</ele>
        <time>2015-01-27T11:46:31.000Z</time>
      </trkpt>
      <trkpt lat="48.71314" lon="1.69337">
        <ele>141.19999694824</ele>
        <time>2015-01-27T11:46:37.000Z</time>
      </trkpt>
      <trkpt lat="48.71315" lon="1.69331">
        <ele>140.80000305176</ele>
        <time>2015-01-27T11:46:40.000Z</time>
      </trkpt>
      <trkpt lat="48.7132" lon="1.69318">
        <ele>139.80000305176</ele>
        <time>2015-01-27T11:46:47.000Z</time>
      </trkpt>
      <trkpt lat="48.71318" lon="1.69303">
        <ele>139.80000305176</ele>
        <time>2015-01-27T11:46:53.000Z</time>
      </trkpt>
      <trkpt lat="48.71319" lon="1.69298">
        <ele>139.60000610352</ele>
        <time>2015-01-27T11:46:55.000Z</time>
      </trkpt>
      <trkpt lat="48.71322" lon="1.69284">
        <ele>139.39999389648</ele>
        <time>2015-01-27T11:47:02.000Z</time>
      </trkpt>
      <trkpt lat="48.71322" lon="1.6928">
        <ele>139.39999389648</ele>
        <time>2015-01-27T11:47:04.000Z</time>
      </trkpt>
      <trkpt lat="48.71324" lon="1.6927">
        <ele>139.60000610352</ele>
        <time>2015-01-27T11:47:09.000Z</time>
      </trkpt>
      <trkpt lat="48.71325" lon="1.6926">
        <ele>139.80000305176</ele>
        <time>2015-01-27T11:47:14.000Z</time>
      </trkpt>
      <trkpt lat="48.71325" lon="1.69254">
        <ele>140</ele>
        <time>2015-01-27T11:47:17.000Z</time>
      </trkpt>
      <trkpt lat="48.71327" lon="1.69238">
        <ele>140.19999694824</ele>
        <time>2015-01-27T11:47:24.000Z</time>
      </trkpt>
      <trkpt lat="48.71331" lon="1.69213">
        <ele>140</ele>
        <time>2015-01-27T11:47:35.000Z</time>
      </trkpt>
      <trkpt lat="48.71328" lon="1.69196">
        <ele>139.80000305176</ele>
        <time>2015-01-27T11:47:43.000Z</time>
      </trkpt>
      <trkpt lat="48.7133" lon="1.69184">
        <ele>139.39999389648</ele>
        <time>2015-01-27T11:47:51.000Z</time>
      </trkpt>
      <trkpt lat="48.7133" lon="1.69184">
        <ele>139.39999389648</ele>
        <time>2015-01-27T11:47:52.000Z</time>
      </trkpt>
      <trkpt lat="48.71342" lon="1.69129">
        <ele>139.19999694824</ele>
        <time>2015-01-27T11:50:47.000Z</time>
      </trkpt>
      <trkpt lat="48.71345" lon="1.6912">
        <ele>139.80000305176</ele>
        <time>2015-01-27T11:50:51.000Z</time>
      </trkpt>
      <trkpt lat="48.71348" lon="1.69111">
        <ele>140.19999694824</ele>
        <time>2015-01-27T11:50:56.000Z</time>
      </trkpt>
      <trkpt lat="48.71354" lon="1.69098">
        <ele>141</ele>
        <time>2015-01-27T11:51:04.000Z</time>
      </trkpt>
      <trkpt lat="48.71355" lon="1.69096">
        <ele>141.19999694824</ele>
        <time>2015-01-27T11:51:05.000Z</time>
      </trkpt>
      <trkpt lat="48.7136" lon="1.69079">
        <ele>142</ele>
        <time>2015-01-27T11:51:13.000Z</time>
      </trkpt>
      <trkpt lat="48.71366" lon="1.69063">
        <ele>142.19999694824</ele>
        <time>2015-01-27T11:51:21.000Z</time>
      </trkpt>
      <trkpt lat="48.71373" lon="1.69052">
        <ele>142.19999694824</ele>
        <time>2015-01-27T11:51:28.000Z</time>
      </trkpt>
      <trkpt lat="48.71374" lon="1.6905">
        <ele>142.19999694824</ele>
        <time>2015-01-27T11:51:29.000Z</time>
      </trkpt>
      <trkpt lat="48.71379" lon="1.69044">
        <ele>142.19999694824</ele>
        <time>2015-01-27T11:51:33.000Z</time>
      </trkpt>
      <trkpt lat="48.7138" lon="1.69032">
        <ele>142.60000610352</ele>
        <time>2015-01-27T11:51:38.000Z</time>
      </trkpt>
      <trkpt lat="48.71383" lon="1.69022">
        <ele>143</ele>
        <time>2015-01-27T11:51:43.000Z</time>
      </trkpt>
      <trkpt lat="48.71391" lon="1.69005">
        <ele>142.60000610352</ele>
        <time>2015-01-27T11:51:53.000Z</time>
      </trkpt>
      <trkpt lat="48.71394" lon="1.68998">
        <ele>142.39999389648</ele>
        <time>2015-01-27T11:51:57.000Z</time>
      </trkpt>
      <trkpt lat="48.714" lon="1.68984">
        <ele>142</ele>
        <time>2015-01-27T11:52:05.000Z</time>
      </trkpt>
      <trkpt lat="48.71407" lon="1.68966">
        <ele>142</ele>
        <time>2015-01-27T11:52:13.000Z</time>
      </trkpt>
      <trkpt lat="48.71416" lon="1.68952">
        <ele>141.19999694824</ele>
        <time>2015-01-27T11:52:21.000Z</time>
      </trkpt>
      <trkpt lat="48.71422" lon="1.68938">
        <ele>141</ele>
        <time>2015-01-27T11:52:29.000Z</time>
      </trkpt>
      <trkpt lat="48.71425" lon="1.68933">
        <ele>140.60000610352</ele>
        <time>2015-01-27T11:52:32.000Z</time>
      </trkpt>
      <trkpt lat="48.71427" lon="1.6893">
        <ele>140.39999389648</ele>
        <time>2015-01-27T11:52:37.000Z</time>
      </trkpt>
      <trkpt lat="48.7143" lon="1.6892">
        <ele>140.39999389648</ele>
        <time>2015-01-27T11:52:49.000Z</time>
      </trkpt>
      <trkpt lat="48.71427" lon="1.68911">
        <ele>141.19999694824</ele>
        <time>2015-01-27T11:52:54.000Z</time>
      </trkpt>
      <trkpt lat="48.71422" lon="1.689">
        <ele>142.19999694824</ele>
        <time>2015-01-27T11:53:00.000Z</time>
      </trkpt>
      <trkpt lat="48.71419" lon="1.68891">
        <ele>143</ele>
        <time>2015-01-27T11:53:06.000Z</time>
      </trkpt>
      <trkpt lat="48.71412" lon="1.68871">
        <ele>144.39999389648</ele>
        <time>2015-01-27T11:53:15.000Z</time>
      </trkpt>
      <trkpt lat="48.71409" lon="1.68861">
        <ele>145</ele>
        <time>2015-01-27T11:53:20.000Z</time>
      </trkpt>
      <trkpt lat="48.71408" lon="1.68855">
        <ele>145.39999389648</ele>
        <time>2015-01-27T11:53:24.000Z</time>
      </trkpt>
      <trkpt lat="48.71402" lon="1.68839">
        <ele>146.60000610352</ele>
        <time>2015-01-27T11:53:31.000Z</time>
      </trkpt>
      <trkpt lat="48.71398" lon="1.68828">
        <ele>147.39999389648</ele>
        <time>2015-01-27T11:53:37.000Z</time>
      </trkpt>
      <trkpt lat="48.71395" lon="1.68816">
        <ele>148</ele>
        <time>2015-01-27T11:53:44.000Z</time>
      </trkpt>
      <trkpt lat="48.71392" lon="1.68806">
        <ele>148.39999389648</ele>
        <time>2015-01-27T11:53:49.000Z</time>
      </trkpt>
      <trkpt lat="48.71392" lon="1.68804">
        <ele>148.60000610352</ele>
        <time>2015-01-27T11:53:51.000Z</time>
      </trkpt>
      <trkpt lat="48.71386" lon="1.68792">
        <ele>149.39999389648</ele>
        <time>2015-01-27T11:53:58.000Z</time>
      </trkpt>
      <trkpt lat="48.71381" lon="1.68777">
        <ele>150</ele>
        <time>2015-01-27T11:54:06.000Z</time>
      </trkpt>
      <trkpt lat="48.7138" lon="1.68776">
        <ele>150.19999694824</ele>
        <time>2015-01-27T11:54:07.000Z</time>
      </trkpt>
      <trkpt lat="48.71378" lon="1.68763">
        <ele>150.39999389648</ele>
        <time>2015-01-27T11:54:13.000Z</time>
      </trkpt>
      <trkpt lat="48.71377" lon="1.68761">
        <ele>150.60000610352</ele>
        <time>2015-01-27T11:54:14.000Z</time>
      </trkpt>
      <trkpt lat="48.71368" lon="1.68741">
        <ele>152.39999389648</ele>
        <time>2015-01-27T11:54:20.000Z</time>
      </trkpt>
      <trkpt lat="48.71365" lon="1.68734">
        <ele>153</ele>
        <time>2015-01-27T11:54:23.000Z</time>
      </trkpt>
      <trkpt lat="48.71358" lon="1.68716">
        <ele>153.60000610352</ele>
        <time>2015-01-27T11:54:30.000Z</time>
      </trkpt>
      <trkpt lat="48.71355" lon="1.68708">
        <ele>153.80000305176</ele>
        <time>2015-01-27T11:54:35.000Z</time>
      </trkpt>
      <trkpt lat="48.7135" lon="1.68695">
        <ele>154.60000610352</ele>
        <time>2015-01-27T11:54:42.000Z</time>
      </trkpt>
      <trkpt lat="48.71346" lon="1.68684">
        <ele>155.19999694824</ele>
        <time>2015-01-27T11:54:48.000Z</time>
      </trkpt>
      <trkpt lat="48.71343" lon="1.68674">
        <ele>155.80000305176</ele>
        <time>2015-01-27T11:54:54.000Z</time>
      </trkpt>
      <trkpt lat="48.71339" lon="1.68658">
        <ele>156.60000610352</ele>
        <time>2015-01-27T11:55:01.000Z</time>
      </trkpt>
      <trkpt lat="48.71332" lon="1.68641">
        <ele>157</ele>
        <time>2015-01-27T11:55:10.000Z</time>
      </trkpt>
      <trkpt lat="48.71328" lon="1.68624">
        <ele>157</ele>
        <time>2015-01-27T11:55:18.000Z</time>
      </trkpt>
      <trkpt lat="48.71324" lon="1.68611">
        <ele>157.19999694824</ele>
        <time>2015-01-27T11:55:25.000Z</time>
      </trkpt>
      <trkpt lat="48.71323" lon="1.68603">
        <ele>157.19999694824</ele>
        <time>2015-01-27T11:55:29.000Z</time>
      </trkpt>
      <trkpt lat="48.71323" lon="1.68597">
        <ele>157</ele>
        <time>2015-01-27T11:55:32.000Z</time>
      </trkpt>
      <trkpt lat="48.71321" lon="1.68588">
        <ele>157.19999694824</ele>
        <time>2015-01-27T11:55:36.000Z</time>
      </trkpt>
      <trkpt lat="48.7132" lon="1.68583">
        <ele>157.19999694824</ele>
        <time>2015-01-27T11:55:39.000Z</time>
      </trkpt>
      <trkpt lat="48.71316" lon="1.68566">
        <ele>157.19999694824</ele>
        <time>2015-01-27T11:55:47.000Z</time>
      </trkpt>
      <trkpt lat="48.71315" lon="1.68557">
        <ele>157</ele>
        <time>2015-01-27T11:55:51.000Z</time>
      </trkpt>
      <trkpt lat="48.71314" lon="1.68537">
        <ele>156</ele>
        <time>2015-01-27T11:55:59.000Z</time>
      </trkpt>
      <trkpt lat="48.71309" lon="1.68519">
        <ele>156</ele>
        <time>2015-01-27T11:56:04.000Z</time>
      </trkpt>
      <trkpt lat="48.71305" lon="1.68503">
        <ele>156</ele>
        <time>2015-01-27T11:56:07.000Z</time>
      </trkpt>
      <trkpt lat="48.71295" lon="1.68471">
        <ele>155.80000305176</ele>
        <time>2015-01-27T11:56:13.000Z</time>
      </trkpt>
      <trkpt lat="48.71285" lon="1.68456">
        <ele>156.39999389648</ele>
        <time>2015-01-27T11:56:18.000Z</time>
      </trkpt>
      <trkpt lat="48.71267" lon="1.68443">
        <ele>157.80000305176</ele>
        <time>2015-01-27T11:56:24.000Z</time>
      </trkpt>
      <trkpt lat="48.71239" lon="1.68431">
        <ele>160.80000305176</ele>
        <time>2015-01-27T11:56:31.000Z</time>
      </trkpt>
      <trkpt lat="48.71212" lon="1.68428">
        <ele>164.19999694824</ele>
        <time>2015-01-27T11:56:38.000Z</time>
      </trkpt>
      <trkpt lat="48.7119" lon="1.68427">
        <ele>166.80000305176</ele>
        <time>2015-01-27T11:56:44.000Z</time>
      </trkpt>
      <trkpt lat="48.7117" lon="1.68433">
        <ele>168.80000305176</ele>
        <time>2015-01-27T11:56:49.000Z</time>
      </trkpt>
      <trkpt lat="48.7115" lon="1.6844">
        <ele>170.80000305176</ele>
        <time>2015-01-27T11:56:55.000Z</time>
      </trkpt>
      <trkpt lat="48.71135" lon="1.68456">
        <ele>171.19999694824</ele>
        <time>2015-01-27T11:57:00.000Z</time>
      </trkpt>
      <trkpt lat="48.71118" lon="1.68474">
        <ele>170.39999389648</ele>
        <time>2015-01-27T11:57:05.000Z</time>
      </trkpt>
      <trkpt lat="48.71105" lon="1.68486">
        <ele>170</ele>
        <time>2015-01-27T11:57:09.000Z</time>
      </trkpt>
      <trkpt lat="48.71082" lon="1.68493">
        <ele>172.39999389648</ele>
        <time>2015-01-27T11:57:15.000Z</time>
      </trkpt>
      <trkpt lat="48.71051" lon="1.68502">
        <ele>175.39999389648</ele>
        <time>2015-01-27T11:57:23.000Z</time>
      </trkpt>
      <trkpt lat="48.71025" lon="1.68516">
        <ele>177.39999389648</ele>
        <time>2015-01-27T11:57:29.000Z</time>
      </trkpt>
      <trkpt lat="48.71018" lon="1.68519">
        <ele>177.80000305176</ele>
        <time>2015-01-27T11:57:31.000Z</time>
      </trkpt>
      <trkpt lat="48.71011" lon="1.68522">
        <ele>178.39999389648</ele>
        <time>2015-01-27T11:57:33.000Z</time>
      </trkpt>
      <trkpt lat="48.70992" lon="1.68539">
        <ele>180.60000610352</ele>
        <time>2015-01-27T11:57:40.000Z</time>
      </trkpt>
      <trkpt lat="48.70972" lon="1.68543">
        <ele>181.39999389648</ele>
        <time>2015-01-27T11:57:46.000Z</time>
      </trkpt>
      <trkpt lat="48.70957" lon="1.68527">
        <ele>181.80000305176</ele>
        <time>2015-01-27T11:57:51.000Z</time>
      </trkpt>
      <trkpt lat="48.70943" lon="1.68512">
        <ele>182</ele>
        <time>2015-01-27T11:57:56.000Z</time>
      </trkpt>
      <trkpt lat="48.70925" lon="1.68496">
        <ele>182.60000610352</ele>
        <time>2015-01-27T11:58:02.000Z</time>
      </trkpt>
      <trkpt lat="48.70906" lon="1.68481">
        <ele>183.60000610352</ele>
        <time>2015-01-27T11:58:08.000Z</time>
      </trkpt>
      <trkpt lat="48.70891" lon="1.68471">
        <ele>184.39999389648</ele>
        <time>2015-01-27T11:58:13.000Z</time>
      </trkpt>
      <trkpt lat="48.7087" lon="1.68461">
        <ele>185.60000610352</ele>
        <time>2015-01-27T11:58:19.000Z</time>
      </trkpt>
      <trkpt lat="48.70852" lon="1.68452">
        <ele>186.39999389648</ele>
        <time>2015-01-27T11:58:24.000Z</time>
      </trkpt>
      <trkpt lat="48.70833" lon="1.68447">
        <ele>186.19999694824</ele>
        <time>2015-01-27T11:58:29.000Z</time>
      </trkpt>
      <trkpt lat="48.70816" lon="1.68448">
        <ele>186</ele>
        <time>2015-01-27T11:58:34.000Z</time>
      </trkpt>
      <trkpt lat="48.70801" lon="1.6845">
        <ele>186.39999389648</ele>
        <time>2015-01-27T11:58:39.000Z</time>
      </trkpt>
      <trkpt lat="48.7079" lon="1.68462">
        <ele>187</ele>
        <time>2015-01-27T11:58:44.000Z</time>
      </trkpt>
      <trkpt lat="48.70786" lon="1.68478">
        <ele>187.39999389648</ele>
        <time>2015-01-27T11:58:49.000Z</time>
      </trkpt>
      <trkpt lat="48.70786" lon="1.68483">
        <ele>187.60000610352</ele>
        <time>2015-01-27T11:58:51.000Z</time>
      </trkpt>
      <trkpt lat="48.70791" lon="1.68504">
        <ele>187.60000610352</ele>
        <time>2015-01-27T11:58:59.000Z</time>
      </trkpt>
      <trkpt lat="48.70793" lon="1.68521">
        <ele>187</ele>
        <time>2015-01-27T11:59:06.000Z</time>
      </trkpt>
      <trkpt lat="48.70792" lon="1.68523">
        <ele>187</ele>
        <time>2015-01-27T11:59:07.000Z</time>
      </trkpt>
      <trkpt lat="48.70792" lon="1.68535">
        <ele>186.60000610352</ele>
        <time>2015-01-27T11:59:13.000Z</time>
      </trkpt>
      <trkpt lat="48.70793" lon="1.68538">
        <ele>186.39999389648</ele>
        <time>2015-01-27T11:59:14.000Z</time>
      </trkpt>
      <trkpt lat="48.70797" lon="1.68558">
        <ele>185.80000305176</ele>
        <time>2015-01-27T11:59:22.000Z</time>
      </trkpt>
      <trkpt lat="48.70798" lon="1.68561">
        <ele>185.60000610352</ele>
        <time>2015-01-27T11:59:23.000Z</time>
      </trkpt>
      <trkpt lat="48.70802" lon="1.68577">
        <ele>185.19999694824</ele>
        <time>2015-01-27T11:59:30.000Z</time>
      </trkpt>
      <trkpt lat="48.70804" lon="1.68594">
        <ele>185.19999694824</ele>
        <time>2015-01-27T11:59:37.000Z</time>
      </trkpt>
      <trkpt lat="48.70804" lon="1.68607">
        <ele>185</ele>
        <time>2015-01-27T11:59:43.000Z</time>
      </trkpt>
      <trkpt lat="48.70807" lon="1.68618">
        <ele>184.80000305176</ele>
        <time>2015-01-27T11:59:48.000Z</time>
      </trkpt>
      <trkpt lat="48.70809" lon="1.68633">
        <ele>184.80000305176</ele>
        <time>2015-01-27T11:59:54.000Z</time>
      </trkpt>
      <trkpt lat="48.70811" lon="1.68648">
        <ele>184.60000610352</ele>
        <time>2015-01-27T12:00:00.000Z</time>
      </trkpt>
      <trkpt lat="48.70812" lon="1.68653">
        <ele>184.60000610352</ele>
        <time>2015-01-27T12:00:02.000Z</time>
      </trkpt>
      <trkpt lat="48.70812" lon="1.68669">
        <ele>184.60000610352</ele>
        <time>2015-01-27T12:00:09.000Z</time>
      </trkpt>
      <trkpt lat="48.7081" lon="1.68681">
        <ele>184.80000305176</ele>
        <time>2015-01-27T12:00:14.000Z</time>
      </trkpt>
      <trkpt lat="48.7081" lon="1.68691">
        <ele>185</ele>
        <time>2015-01-27T12:00:18.000Z</time>
      </trkpt>
      <trkpt lat="48.7081" lon="1.68704">
        <ele>185</ele>
        <time>2015-01-27T12:00:23.000Z</time>
      </trkpt>
      <trkpt lat="48.7081" lon="1.68717">
        <ele>185</ele>
        <time>2015-01-27T12:00:29.000Z</time>
      </trkpt>
      <trkpt lat="48.70809" lon="1.6873">
        <ele>185</ele>
        <time>2015-01-27T12:00:34.000Z</time>
      </trkpt>
      <trkpt lat="48.70809" lon="1.68733">
        <ele>185</ele>
        <time>2015-01-27T12:00:35.000Z</time>
      </trkpt>
      <trkpt lat="48.7081" lon="1.68748">
        <ele>185</ele>
        <time>2015-01-27T12:00:41.000Z</time>
      </trkpt>
      <trkpt lat="48.70811" lon="1.68762">
        <ele>185</ele>
        <time>2015-01-27T12:00:46.000Z</time>
      </trkpt>
      <trkpt lat="48.70811" lon="1.68773">
        <ele>185</ele>
        <time>2015-01-27T12:00:51.000Z</time>
      </trkpt>
      <trkpt lat="48.70811" lon="1.68795">
        <ele>185.19999694824</ele>
        <time>2015-01-27T12:01:00.000Z</time>
      </trkpt>
      <trkpt lat="48.70811" lon="1.6881">
        <ele>185.39999389648</ele>
        <time>2015-01-27T12:01:06.000Z</time>
      </trkpt>
      <trkpt lat="48.70811" lon="1.68814">
        <ele>185.39999389648</ele>
        <time>2015-01-27T12:01:08.000Z</time>
      </trkpt>
      <trkpt lat="48.70808" lon="1.68821">
        <ele>185.39999389648</ele>
        <time>2015-01-27T12:01:12.000Z</time>
      </trkpt>
      <trkpt lat="48.70808" lon="1.68834">
        <ele>185.60000610352</ele>
        <time>2015-01-27T12:01:18.000Z</time>
      </trkpt>
      <trkpt lat="48.70806" lon="1.6885">
        <ele>185.80000305176</ele>
        <time>2015-01-27T12:01:25.000Z</time>
      </trkpt>
      <trkpt lat="48.70807" lon="1.68866">
        <ele>185.80000305176</ele>
        <time>2015-01-27T12:01:31.000Z</time>
      </trkpt>
      <trkpt lat="48.70805" lon="1.68878">
        <ele>185.80000305176</ele>
        <time>2015-01-27T12:01:36.000Z</time>
      </trkpt>
      <trkpt lat="48.70805" lon="1.68893">
        <ele>185.80000305176</ele>
        <time>2015-01-27T12:01:42.000Z</time>
      </trkpt>
      <trkpt lat="48.70806" lon="1.68902">
        <ele>185.80000305176</ele>
        <time>2015-01-27T12:01:46.000Z</time>
      </trkpt>
      <trkpt lat="48.70809" lon="1.68919">
        <ele>186.19999694824</ele>
        <time>2015-01-27T12:01:53.000Z</time>
      </trkpt>
      <trkpt lat="48.70806" lon="1.68935">
        <ele>186.19999694824</ele>
        <time>2015-01-27T12:02:00.000Z</time>
      </trkpt>
      <trkpt lat="48.70806" lon="1.68938">
        <ele>186.19999694824</ele>
        <time>2015-01-27T12:02:01.000Z</time>
      </trkpt>
      <trkpt lat="48.70806" lon="1.68954">
        <ele>186.39999389648</ele>
        <time>2015-01-27T12:02:08.000Z</time>
      </trkpt>
      <trkpt lat="48.70804" lon="1.68971">
        <ele>186.60000610352</ele>
        <time>2015-01-27T12:02:15.000Z</time>
      </trkpt>
      <trkpt lat="48.70801" lon="1.68984">
        <ele>186.80000305176</ele>
        <time>2015-01-27T12:02:21.000Z</time>
      </trkpt>
      <trkpt lat="48.70799" lon="1.68994">
        <ele>186.80000305176</ele>
        <time>2015-01-27T12:02:25.000Z</time>
      </trkpt>
      <trkpt lat="48.70796" lon="1.6901">
        <ele>187</ele>
        <time>2015-01-27T12:02:32.000Z</time>
      </trkpt>
      <trkpt lat="48.70794" lon="1.69029">
        <ele>187.39999389648</ele>
        <time>2015-01-27T12:02:40.000Z</time>
      </trkpt>
      <trkpt lat="48.70794" lon="1.69041">
        <ele>187.60000610352</ele>
        <time>2015-01-27T12:02:45.000Z</time>
      </trkpt>
      <trkpt lat="48.70794" lon="1.69058">
        <ele>188</ele>
        <time>2015-01-27T12:02:53.000Z</time>
      </trkpt>
      <trkpt lat="48.70796" lon="1.69072">
        <ele>188.19999694824</ele>
        <time>2015-01-27T12:02:59.000Z</time>
      </trkpt>
      <trkpt lat="48.70795" lon="1.69087">
        <ele>187.39999389648</ele>
        <time>2015-01-27T12:03:05.000Z</time>
      </trkpt>
      <trkpt lat="48.70794" lon="1.69089">
        <ele>187.39999389648</ele>
        <time>2015-01-27T12:03:06.000Z</time>
      </trkpt>
      <trkpt lat="48.70792" lon="1.69098">
        <ele>187.19999694824</ele>
        <time>2015-01-27T12:03:10.000Z</time>
      </trkpt>
      <trkpt lat="48.70791" lon="1.69113">
        <ele>187.60000610352</ele>
        <time>2015-01-27T12:03:17.000Z</time>
      </trkpt>
      <trkpt lat="48.7079" lon="1.69125">
        <ele>187.80000305176</ele>
        <time>2015-01-27T12:03:23.000Z</time>
      </trkpt>
      <trkpt lat="48.70789" lon="1.69138">
        <ele>188</ele>
        <time>2015-01-27T12:03:29.000Z</time>
      </trkpt>
      <trkpt lat="48.7079" lon="1.69156">
        <ele>188</ele>
        <time>2015-01-27T12:03:36.000Z</time>
      </trkpt>
      <trkpt lat="48.70792" lon="1.69177">
        <ele>187.19999694824</ele>
        <time>2015-01-27T12:03:44.000Z</time>
      </trkpt>
      <trkpt lat="48.70791" lon="1.69193">
        <ele>186.80000305176</ele>
        <time>2015-01-27T12:03:51.000Z</time>
      </trkpt>
      <trkpt lat="48.70791" lon="1.69217">
        <ele>186.19999694824</ele>
        <time>2015-01-27T12:04:01.000Z</time>
      </trkpt>
      <trkpt lat="48.70792" lon="1.69242">
        <ele>185.80000305176</ele>
        <time>2015-01-27T12:04:11.000Z</time>
      </trkpt>
      <trkpt lat="48.70791" lon="1.69269">
        <ele>185.39999389648</ele>
        <time>2015-01-27T12:04:22.000Z</time>
      </trkpt>
      <trkpt lat="48.70791" lon="1.69289">
        <ele>185</ele>
        <time>2015-01-27T12:04:30.000Z</time>
      </trkpt>
      <trkpt lat="48.7079" lon="1.69294">
        <ele>185</ele>
        <time>2015-01-27T12:04:32.000Z</time>
      </trkpt>
      <trkpt lat="48.70788" lon="1.6931">
        <ele>184.60000610352</ele>
        <time>2015-01-27T12:04:39.000Z</time>
      </trkpt>
      <trkpt lat="48.70786" lon="1.69339">
        <ele>184.19999694824</ele>
        <time>2015-01-27T12:04:51.000Z</time>
      </trkpt>
      <trkpt lat="48.70785" lon="1.69346">
        <ele>184</ele>
        <time>2015-01-27T12:04:54.000Z</time>
      </trkpt>
      <trkpt lat="48.70785" lon="1.69364">
        <ele>183</ele>
        <time>2015-01-27T12:05:02.000Z</time>
      </trkpt>
      <trkpt lat="48.70784" lon="1.69383">
        <ele>182.19999694824</ele>
        <time>2015-01-27T12:05:10.000Z</time>
      </trkpt>
      <trkpt lat="48.70782" lon="1.69407">
        <ele>181.19999694824</ele>
        <time>2015-01-27T12:05:20.000Z</time>
      </trkpt>
      <trkpt lat="48.70782" lon="1.6943">
        <ele>180.80000305176</ele>
        <time>2015-01-27T12:05:30.000Z</time>
      </trkpt>
      <trkpt lat="48.70786" lon="1.69442">
        <ele>180.80000305176</ele>
        <time>2015-01-27T12:05:36.000Z</time>
      </trkpt>
      <trkpt lat="48.70788" lon="1.69456">
        <ele>180.60000610352</ele>
        <time>2015-01-27T12:05:42.000Z</time>
      </trkpt>
      <trkpt lat="48.70788" lon="1.69473">
        <ele>180.39999389648</ele>
        <time>2015-01-27T12:05:50.000Z</time>
      </trkpt>
      <trkpt lat="48.7079" lon="1.69488">
        <ele>180.19999694824</ele>
        <time>2015-01-27T12:05:57.000Z</time>
      </trkpt>
      <trkpt lat="48.70791" lon="1.69503">
        <ele>180.19999694824</ele>
        <time>2015-01-27T12:06:03.000Z</time>
      </trkpt>
      <trkpt lat="48.70794" lon="1.69517">
        <ele>180.19999694824</ele>
        <time>2015-01-27T12:06:09.000Z</time>
      </trkpt>
      <trkpt lat="48.70795" lon="1.69523">
        <ele>180.19999694824</ele>
        <time>2015-01-27T12:06:12.000Z</time>
      </trkpt>
      <trkpt lat="48.70796" lon="1.69535">
        <ele>180</ele>
        <time>2015-01-27T12:06:17.000Z</time>
      </trkpt>
      <trkpt lat="48.70798" lon="1.69555">
        <ele>179.80000305176</ele>
        <time>2015-01-27T12:06:26.000Z</time>
      </trkpt>
      <trkpt lat="48.70799" lon="1.69571">
        <ele>179.60000610352</ele>
        <time>2015-01-27T12:06:33.000Z</time>
      </trkpt>
      <trkpt lat="48.70797" lon="1.69586">
        <ele>179</ele>
        <time>2015-01-27T12:06:39.000Z</time>
      </trkpt>
      <trkpt lat="48.70795" lon="1.6959">
        <ele>178.80000305176</ele>
        <time>2015-01-27T12:06:41.000Z</time>
      </trkpt>
      <trkpt lat="48.70792" lon="1.6961">
        <ele>179.19999694824</ele>
        <time>2015-01-27T12:06:50.000Z</time>
      </trkpt>
      <trkpt lat="48.70786" lon="1.6963">
        <ele>179.80000305176</ele>
        <time>2015-01-27T12:06:59.000Z</time>
      </trkpt>
      <trkpt lat="48.70786" lon="1.6964">
        <ele>180.19999694824</ele>
        <time>2015-01-27T12:07:05.000Z</time>
      </trkpt>
      <trkpt lat="48.70786" lon="1.69639">
        <ele>180</ele>
        <time>2015-01-27T12:07:06.000Z</time>
      </trkpt>
      <trkpt lat="48.70785" lon="1.69647">
        <ele>180.39999389648</ele>
        <time>2015-01-27T12:07:14.000Z</time>
      </trkpt>
      <trkpt lat="48.70781" lon="1.69659">
        <ele>180.60000610352</ele>
        <time>2015-01-27T12:07:19.000Z</time>
      </trkpt>
      <trkpt lat="48.70776" lon="1.69665">
        <ele>180.60000610352</ele>
        <time>2015-01-27T12:07:23.000Z</time>
      </trkpt>
      <trkpt lat="48.70772" lon="1.69702">
        <ele>180.39999389648</ele>
        <time>2015-01-27T12:07:32.000Z</time>
      </trkpt>
      <trkpt lat="48.70772" lon="1.69741">
        <ele>180</ele>
        <time>2015-01-27T12:07:39.000Z</time>
      </trkpt>
      <trkpt lat="48.70765" lon="1.6978">
        <ele>180.80000305176</ele>
        <time>2015-01-27T12:07:46.000Z</time>
      </trkpt>
      <trkpt lat="48.70761" lon="1.69806">
        <ele>181.19999694824</ele>
        <time>2015-01-27T12:07:51.000Z</time>
      </trkpt>
      <trkpt lat="48.70756" lon="1.6984">
        <ele>181.80000305176</ele>
        <time>2015-01-27T12:07:57.000Z</time>
      </trkpt>
      <trkpt lat="48.70747" lon="1.69869">
        <ele>183</ele>
        <time>2015-01-27T12:08:02.000Z</time>
      </trkpt>
      <trkpt lat="48.70739" lon="1.6992">
        <ele>184.39999389648</ele>
        <time>2015-01-27T12:08:10.000Z</time>
      </trkpt>
      <trkpt lat="48.70738" lon="1.69932">
        <ele>185</ele>
        <time>2015-01-27T12:08:12.000Z</time>
      </trkpt>
      <trkpt lat="48.70737" lon="1.69945">
        <ele>185.60000610352</ele>
        <time>2015-01-27T12:08:14.000Z</time>
      </trkpt>
      <trkpt lat="48.7074" lon="1.69984">
        <ele>187.60000610352</ele>
        <time>2015-01-27T12:08:20.000Z</time>
      </trkpt>
      <trkpt lat="48.70741" lon="1.7001">
        <ele>187.60000610352</ele>
        <time>2015-01-27T12:08:25.000Z</time>
      </trkpt>
      <trkpt lat="48.70743" lon="1.70025">
        <ele>187.60000610352</ele>
        <time>2015-01-27T12:08:29.000Z</time>
      </trkpt>
      <trkpt lat="48.70742" lon="1.70043">
        <ele>187.60000610352</ele>
        <time>2015-01-27T12:08:34.000Z</time>
      </trkpt>
      <trkpt lat="48.70742" lon="1.70068">
        <ele>187.39999389648</ele>
        <time>2015-01-27T12:08:40.000Z</time>
      </trkpt>
      <trkpt lat="48.70739" lon="1.70099">
        <ele>186.60000610352</ele>
        <time>2015-01-27T12:08:46.000Z</time>
      </trkpt>
      <trkpt lat="48.70737" lon="1.70129">
        <ele>185.60000610352</ele>
        <time>2015-01-27T12:08:51.000Z</time>
      </trkpt>
      <trkpt lat="48.70734" lon="1.70157">
        <ele>184.60000610352</ele>
        <time>2015-01-27T12:08:56.000Z</time>
      </trkpt>
      <trkpt lat="48.70732" lon="1.70189">
        <ele>183.80000305176</ele>
        <time>2015-01-27T12:09:01.000Z</time>
      </trkpt>
      <trkpt lat="48.70731" lon="1.70211">
        <ele>183</ele>
        <time>2015-01-27T12:09:04.000Z</time>
      </trkpt>
      <trkpt lat="48.70723" lon="1.70264">
        <ele>178.80000305176</ele>
        <time>2015-01-27T12:09:11.000Z</time>
      </trkpt>
      <trkpt lat="48.70715" lon="1.7031">
        <ele>178.80000305176</ele>
        <time>2015-01-27T12:09:17.000Z</time>
      </trkpt>
      <trkpt lat="48.70707" lon="1.70347">
        <ele>178.60000610352</ele>
        <time>2015-01-27T12:09:22.000Z</time>
      </trkpt>
      <trkpt lat="48.70694" lon="1.704">
        <ele>185.19999694824</ele>
        <time>2015-01-27T12:09:29.000Z</time>
      </trkpt>
      <trkpt lat="48.70688" lon="1.70421">
        <ele>186.80000305176</ele>
        <time>2015-01-27T12:09:32.000Z</time>
      </trkpt>
      <trkpt lat="48.70684" lon="1.7045">
        <ele>187.19999694824</ele>
        <time>2015-01-27T12:09:36.000Z</time>
      </trkpt>
      <trkpt lat="48.70669" lon="1.70513">
        <ele>187</ele>
        <time>2015-01-27T12:09:45.000Z</time>
      </trkpt>
      <trkpt lat="48.70668" lon="1.70521">
        <ele>186.80000305176</ele>
        <time>2015-01-27T12:09:46.000Z</time>
      </trkpt>
      <trkpt lat="48.70666" lon="1.70534">
        <ele>186.60000610352</ele>
        <time>2015-01-27T12:09:48.000Z</time>
      </trkpt>
      <trkpt lat="48.70669" lon="1.7056">
        <ele>185.80000305176</ele>
        <time>2015-01-27T12:09:52.000Z</time>
      </trkpt>
      <trkpt lat="48.70671" lon="1.70573">
        <ele>185.39999389648</ele>
        <time>2015-01-27T12:09:54.000Z</time>
      </trkpt>
      <trkpt lat="48.70683" lon="1.70637">
        <ele>185</ele>
        <time>2015-01-27T12:10:04.000Z</time>
      </trkpt>
      <trkpt lat="48.70685" lon="1.7065">
        <ele>185</ele>
        <time>2015-01-27T12:10:06.000Z</time>
      </trkpt>
      <trkpt lat="48.70694" lon="1.70681">
        <ele>185</ele>
        <time>2015-01-27T12:10:11.000Z</time>
      </trkpt>
      <trkpt lat="48.70696" lon="1.70686">
        <ele>185.19999694824</ele>
        <time>2015-01-27T12:10:12.000Z</time>
      </trkpt>
      <trkpt lat="48.70705" lon="1.70706">
        <ele>185.19999694824</ele>
        <time>2015-01-27T12:10:15.000Z</time>
      </trkpt>
      <trkpt lat="48.70724" lon="1.70766">
        <ele>185.39999389648</ele>
        <time>2015-01-27T12:10:22.000Z</time>
      </trkpt>
      <trkpt lat="48.70737" lon="1.70806">
        <ele>185.39999389648</ele>
        <time>2015-01-27T12:10:27.000Z</time>
      </trkpt>
      <trkpt lat="48.70748" lon="1.70839">
        <ele>185.19999694824</ele>
        <time>2015-01-27T12:10:31.000Z</time>
      </trkpt>
      <trkpt lat="48.70759" lon="1.70874">
        <ele>185</ele>
        <time>2015-01-27T12:10:36.000Z</time>
      </trkpt>
      <trkpt lat="48.70764" lon="1.70891">
        <ele>185</ele>
        <time>2015-01-27T12:10:39.000Z</time>
      </trkpt>
      <trkpt lat="48.70772" lon="1.70917">
        <ele>184.80000305176</ele>
        <time>2015-01-27T12:10:44.000Z</time>
      </trkpt>
      <trkpt lat="48.70779" lon="1.70934">
        <ele>184.60000610352</ele>
        <time>2015-01-27T12:10:47.000Z</time>
      </trkpt>
      <trkpt lat="48.70785" lon="1.70952">
        <ele>184.39999389648</ele>
        <time>2015-01-27T12:10:50.000Z</time>
      </trkpt>
      <trkpt lat="48.70803" lon="1.71005">
        <ele>184.39999389648</ele>
        <time>2015-01-27T12:10:58.000Z</time>
      </trkpt>
      <trkpt lat="48.7082" lon="1.71052">
        <ele>185.80000305176</ele>
        <time>2015-01-27T12:11:05.000Z</time>
      </trkpt>
      <trkpt lat="48.70836" lon="1.71106">
        <ele>187.39999389648</ele>
        <time>2015-01-27T12:11:12.000Z</time>
      </trkpt>
      <trkpt lat="48.70858" lon="1.7117">
        <ele>188.60000610352</ele>
        <time>2015-01-27T12:11:20.000Z</time>
      </trkpt>
      <trkpt lat="48.7087" lon="1.71205">
        <ele>187.39999389648</ele>
        <time>2015-01-27T12:11:24.000Z</time>
      </trkpt>
      <trkpt lat="48.70886" lon="1.71254">
        <ele>185.80000305176</ele>
        <time>2015-01-27T12:11:30.000Z</time>
      </trkpt>
      <trkpt lat="48.709" lon="1.71298">
        <ele>184</ele>
        <time>2015-01-27T12:11:36.000Z</time>
      </trkpt>
      <trkpt lat="48.70913" lon="1.71339">
        <ele>183.19999694824</ele>
        <time>2015-01-27T12:11:42.000Z</time>
      </trkpt>
      <trkpt lat="48.70924" lon="1.71372">
        <ele>183.60000610352</ele>
        <time>2015-01-27T12:11:47.000Z</time>
      </trkpt>
      <trkpt lat="48.70931" lon="1.71395">
        <ele>184</ele>
        <time>2015-01-27T12:11:51.000Z</time>
      </trkpt>
      <trkpt lat="48.70944" lon="1.71438">
        <ele>184.80000305176</ele>
        <time>2015-01-27T12:11:58.000Z</time>
      </trkpt>
      <trkpt lat="48.70945" lon="1.71445">
        <ele>185</ele>
        <time>2015-01-27T12:11:59.000Z</time>
      </trkpt>
      <trkpt lat="48.70949" lon="1.71456">
        <ele>185.19999694824</ele>
        <time>2015-01-27T12:12:01.000Z</time>
      </trkpt>
      <trkpt lat="48.70953" lon="1.71474">
        <ele>185.39999389648</ele>
        <time>2015-01-27T12:12:04.000Z</time>
      </trkpt>
      <trkpt lat="48.70968" lon="1.71512">
        <ele>185.80000305176</ele>
        <time>2015-01-27T12:12:11.000Z</time>
      </trkpt>
      <trkpt lat="48.70974" lon="1.71536">
        <ele>185.80000305176</ele>
        <time>2015-01-27T12:12:15.000Z</time>
      </trkpt>
      <trkpt lat="48.70978" lon="1.71548">
        <ele>185.60000610352</ele>
        <time>2015-01-27T12:12:17.000Z</time>
      </trkpt>
      <trkpt lat="48.70985" lon="1.7157">
        <ele>185.19999694824</ele>
        <time>2015-01-27T12:12:21.000Z</time>
      </trkpt>
      <trkpt lat="48.7099" lon="1.71597">
        <ele>185.80000305176</ele>
        <time>2015-01-27T12:12:26.000Z</time>
      </trkpt>
      <trkpt lat="48.70982" lon="1.71624">
        <ele>186.80000305176</ele>
        <time>2015-01-27T12:12:32.000Z</time>
      </trkpt>
      <trkpt lat="48.70969" lon="1.71637">
        <ele>186.80000305176</ele>
        <time>2015-01-27T12:12:36.000Z</time>
      </trkpt>
      <trkpt lat="48.70952" lon="1.71653">
        <ele>186.80000305176</ele>
        <time>2015-01-27T12:12:41.000Z</time>
      </trkpt>
      <trkpt lat="48.70926" lon="1.71675">
        <ele>187.39999389648</ele>
        <time>2015-01-27T12:12:48.000Z</time>
      </trkpt>
      <trkpt lat="48.70899" lon="1.71698">
        <ele>187.39999389648</ele>
        <time>2015-01-27T12:12:56.000Z</time>
      </trkpt>
      <trkpt lat="48.70872" lon="1.71725">
        <ele>185.39999389648</ele>
        <time>2015-01-27T12:13:04.000Z</time>
      </trkpt>
      <trkpt lat="48.70846" lon="1.7175">
        <ele>184.60000610352</ele>
        <time>2015-01-27T12:13:12.000Z</time>
      </trkpt>
      <trkpt lat="48.70831" lon="1.71765">
        <ele>185.39999389648</ele>
        <time>2015-01-27T12:13:17.000Z</time>
      </trkpt>
      <trkpt lat="48.70819" lon="1.71774">
        <ele>186.19999694824</ele>
        <time>2015-01-27T12:13:22.000Z</time>
      </trkpt>
      <trkpt lat="48.70817" lon="1.71778">
        <ele>186.39999389648</ele>
        <time>2015-01-27T12:13:24.000Z</time>
      </trkpt>
      <trkpt lat="48.70809" lon="1.71788">
        <ele>186.60000610352</ele>
        <time>2015-01-27T12:13:30.000Z</time>
      </trkpt>
      <trkpt lat="48.70799" lon="1.71795">
        <ele>187</ele>
        <time>2015-01-27T12:13:37.000Z</time>
      </trkpt>
      <trkpt lat="48.7079" lon="1.71803">
        <ele>187.39999389648</ele>
        <time>2015-01-27T12:13:43.000Z</time>
      </trkpt>
      <trkpt lat="48.70781" lon="1.71811">
        <ele>187.60000610352</ele>
        <time>2015-01-27T12:13:49.000Z</time>
      </trkpt>
      <trkpt lat="48.70772" lon="1.71817">
        <ele>188</ele>
        <time>2015-01-27T12:13:55.000Z</time>
      </trkpt>
      <trkpt lat="48.70766" lon="1.71824">
        <ele>188</ele>
        <time>2015-01-27T12:14:00.000Z</time>
      </trkpt>
      <trkpt lat="48.70756" lon="1.71835">
        <ele>188.39999389648</ele>
        <time>2015-01-27T12:14:08.000Z</time>
      </trkpt>
      <trkpt lat="48.70745" lon="1.71844">
        <ele>188.60000610352</ele>
        <time>2015-01-27T12:14:16.000Z</time>
      </trkpt>
      <trkpt lat="48.70737" lon="1.71851">
        <ele>188.80000305176</ele>
        <time>2015-01-27T12:14:22.000Z</time>
      </trkpt>
      <trkpt lat="48.70728" lon="1.7186">
        <ele>189</ele>
        <time>2015-01-27T12:14:29.000Z</time>
      </trkpt>
      <trkpt lat="48.70717" lon="1.71867">
        <ele>189</ele>
        <time>2015-01-27T12:14:37.000Z</time>
      </trkpt>
      <trkpt lat="48.70708" lon="1.71875">
        <ele>189</ele>
        <time>2015-01-27T12:14:43.000Z</time>
      </trkpt>
      <trkpt lat="48.70699" lon="1.71886">
        <ele>189</ele>
        <time>2015-01-27T12:14:50.000Z</time>
      </trkpt>
      <trkpt lat="48.70691" lon="1.71892">
        <ele>189</ele>
        <time>2015-01-27T12:14:56.000Z</time>
      </trkpt>
      <trkpt lat="48.70681" lon="1.71899">
        <ele>189</ele>
        <time>2015-01-27T12:15:03.000Z</time>
      </trkpt>
      <trkpt lat="48.70675" lon="1.71904">
        <ele>188.80000305176</ele>
        <time>2015-01-27T12:15:08.000Z</time>
      </trkpt>
      <trkpt lat="48.70665" lon="1.71904">
        <ele>188.39999389648</ele>
        <time>2015-01-27T12:15:15.000Z</time>
      </trkpt>
      <trkpt lat="48.70653" lon="1.71913">
        <ele>187.80000305176</ele>
        <time>2015-01-27T12:15:23.000Z</time>
      </trkpt>
      <trkpt lat="48.70646" lon="1.71919">
        <ele>187.19999694824</ele>
        <time>2015-01-27T12:15:28.000Z</time>
      </trkpt>
      <trkpt lat="48.70635" lon="1.7193">
        <ele>186.60000610352</ele>
        <time>2015-01-27T12:15:36.000Z</time>
      </trkpt>
      <trkpt lat="48.70625" lon="1.71939">
        <ele>187</ele>
        <time>2015-01-27T12:15:43.000Z</time>
      </trkpt>
      <trkpt lat="48.70617" lon="1.71941">
        <ele>187.60000610352</ele>
        <time>2015-01-27T12:15:48.000Z</time>
      </trkpt>
      <trkpt lat="48.70602" lon="1.71951">
        <ele>188.80000305176</ele>
        <time>2015-01-27T12:15:58.000Z</time>
      </trkpt>
      <trkpt lat="48.7059" lon="1.71958">
        <ele>189.19999694824</ele>
        <time>2015-01-27T12:16:06.000Z</time>
      </trkpt>
      <trkpt lat="48.7058" lon="1.71965">
        <ele>189.80000305176</ele>
        <time>2015-01-27T12:16:14.000Z</time>
      </trkpt>
      <trkpt lat="48.70571" lon="1.71971">
        <ele>189.60000610352</ele>
        <time>2015-01-27T12:16:20.000Z</time>
      </trkpt>
      <trkpt lat="48.70563" lon="1.71976">
        <ele>189.60000610352</ele>
        <time>2015-01-27T12:16:27.000Z</time>
      </trkpt>
      <trkpt lat="48.70554" lon="1.71987">
        <ele>189.39999389648</ele>
        <time>2015-01-27T12:16:34.000Z</time>
      </trkpt>
      <trkpt lat="48.70543" lon="1.71992">
        <ele>189.19999694824</ele>
        <time>2015-01-27T12:16:41.000Z</time>
      </trkpt>
      <trkpt lat="48.7054" lon="1.71996">
        <ele>189</ele>
        <time>2015-01-27T12:16:44.000Z</time>
      </trkpt>
      <trkpt lat="48.70529" lon="1.72003">
        <ele>188.80000305176</ele>
        <time>2015-01-27T12:16:52.000Z</time>
      </trkpt>
      <trkpt lat="48.70518" lon="1.7201">
        <ele>188.60000610352</ele>
        <time>2015-01-27T12:16:59.000Z</time>
      </trkpt>
      <trkpt lat="48.70511" lon="1.72015">
        <ele>188.19999694824</ele>
        <time>2015-01-27T12:17:03.000Z</time>
      </trkpt>
      <trkpt lat="48.70504" lon="1.72017">
        <ele>187.80000305176</ele>
        <time>2015-01-27T12:17:08.000Z</time>
      </trkpt>
      <trkpt lat="48.70496" lon="1.72026">
        <ele>187.39999389648</ele>
        <time>2015-01-27T12:17:15.000Z</time>
      </trkpt>
      <trkpt lat="48.7049" lon="1.72028">
        <ele>187</ele>
        <time>2015-01-27T12:17:20.000Z</time>
      </trkpt>
      <trkpt lat="48.70481" lon="1.72039">
        <ele>186.60000610352</ele>
        <time>2015-01-27T12:17:27.000Z</time>
      </trkpt>
      <trkpt lat="48.70476" lon="1.72043">
        <ele>186.39999389648</ele>
        <time>2015-01-27T12:17:31.000Z</time>
      </trkpt>
      <trkpt lat="48.70466" lon="1.72048">
        <ele>186</ele>
        <time>2015-01-27T12:17:37.000Z</time>
      </trkpt>
      <trkpt lat="48.70457" lon="1.72054">
        <ele>185.80000305176</ele>
        <time>2015-01-27T12:17:43.000Z</time>
      </trkpt>
      <trkpt lat="48.70448" lon="1.72059">
        <ele>185.39999389648</ele>
        <time>2015-01-27T12:17:49.000Z</time>
      </trkpt>
      <trkpt lat="48.70447" lon="1.7206">
        <ele>185.39999389648</ele>
        <time>2015-01-27T12:17:50.000Z</time>
      </trkpt>
      <trkpt lat="48.7044" lon="1.72067">
        <ele>185.19999694824</ele>
        <time>2015-01-27T12:17:54.000Z</time>
      </trkpt>
      <trkpt lat="48.70429" lon="1.72072">
        <ele>185</ele>
        <time>2015-01-27T12:18:01.000Z</time>
      </trkpt>
      <trkpt lat="48.70421" lon="1.7208">
        <ele>185</ele>
        <time>2015-01-27T12:18:07.000Z</time>
      </trkpt>
      <trkpt lat="48.70414" lon="1.72084">
        <ele>185</ele>
        <time>2015-01-27T12:18:12.000Z</time>
      </trkpt>
      <trkpt lat="48.70411" lon="1.72086">
        <ele>185</ele>
        <time>2015-01-27T12:18:14.000Z</time>
      </trkpt>
      <trkpt lat="48.70405" lon="1.72091">
        <ele>185</ele>
        <time>2015-01-27T12:18:18.000Z</time>
      </trkpt>
      <trkpt lat="48.70393" lon="1.72099">
        <ele>185</ele>
        <time>2015-01-27T12:18:26.000Z</time>
      </trkpt>
      <trkpt lat="48.70382" lon="1.72109">
        <ele>185.19999694824</ele>
        <time>2015-01-27T12:18:34.000Z</time>
      </trkpt>
      <trkpt lat="48.70381" lon="1.72112">
        <ele>185.19999694824</ele>
        <time>2015-01-27T12:18:35.000Z</time>
      </trkpt>
      <trkpt lat="48.70372" lon="1.72116">
        <ele>185.39999389648</ele>
        <time>2015-01-27T12:18:40.000Z</time>
      </trkpt>
      <trkpt lat="48.70365" lon="1.72118">
        <ele>185.39999389648</ele>
        <time>2015-01-27T12:18:45.000Z</time>
      </trkpt>
      <trkpt lat="48.70355" lon="1.72123">
        <ele>185.60000610352</ele>
        <time>2015-01-27T12:18:51.000Z</time>
      </trkpt>
      <trkpt lat="48.70347" lon="1.72128">
        <ele>185.39999389648</ele>
        <time>2015-01-27T12:18:56.000Z</time>
      </trkpt>
      <trkpt lat="48.70337" lon="1.72136">
        <ele>185</ele>
        <time>2015-01-27T12:19:03.000Z</time>
      </trkpt>
      <trkpt lat="48.70329" lon="1.72139">
        <ele>184.80000305176</ele>
        <time>2015-01-27T12:19:08.000Z</time>
      </trkpt>
      <trkpt lat="48.70323" lon="1.72149">
        <ele>185.19999694824</ele>
        <time>2015-01-27T12:19:14.000Z</time>
      </trkpt>
      <trkpt lat="48.70322" lon="1.72151">
        <ele>185.19999694824</ele>
        <time>2015-01-27T12:19:15.000Z</time>
      </trkpt>
      <trkpt lat="48.7031" lon="1.72158">
        <ele>185</ele>
        <time>2015-01-27T12:19:23.000Z</time>
      </trkpt>
      <trkpt lat="48.70302" lon="1.72164">
        <ele>184.80000305176</ele>
        <time>2015-01-27T12:19:29.000Z</time>
      </trkpt>
      <trkpt lat="48.70295" lon="1.7217">
        <ele>184.60000610352</ele>
        <time>2015-01-27T12:19:34.000Z</time>
      </trkpt>
      <trkpt lat="48.70285" lon="1.72178">
        <ele>184.39999389648</ele>
        <time>2015-01-27T12:19:41.000Z</time>
      </trkpt>
      <trkpt lat="48.7028" lon="1.72193">
        <ele>184.60000610352</ele>
        <time>2015-01-27T12:19:45.000Z</time>
      </trkpt>
      <trkpt lat="48.70278" lon="1.72204">
        <ele>184.60000610352</ele>
        <time>2015-01-27T12:19:49.000Z</time>
      </trkpt>
      <trkpt lat="48.70277" lon="1.7221">
        <ele>184.80000305176</ele>
        <time>2015-01-27T12:19:52.000Z</time>
      </trkpt>
      <trkpt lat="48.70275" lon="1.72225">
        <ele>185</ele>
        <time>2015-01-27T12:19:58.000Z</time>
      </trkpt>
      <trkpt lat="48.70274" lon="1.72232">
        <ele>185</ele>
        <time>2015-01-27T12:20:01.000Z</time>
      </trkpt>
      <trkpt lat="48.7027" lon="1.72244">
        <ele>185</ele>
        <time>2015-01-27T12:20:06.000Z</time>
      </trkpt>
      <trkpt lat="48.7027" lon="1.72261">
        <ele>185</ele>
        <time>2015-01-27T12:20:13.000Z</time>
      </trkpt>
      <trkpt lat="48.70267" lon="1.72276">
        <ele>184.80000305176</ele>
        <time>2015-01-27T12:20:17.000Z</time>
      </trkpt>
      <trkpt lat="48.70263" lon="1.72294">
        <ele>184.39999389648</ele>
        <time>2015-01-27T12:20:22.000Z</time>
      </trkpt>
      <trkpt lat="48.70261" lon="1.72299">
        <ele>184.19999694824</ele>
        <time>2015-01-27T12:20:24.000Z</time>
      </trkpt>
      <trkpt lat="48.70259" lon="1.72305">
        <ele>184</ele>
        <time>2015-01-27T12:20:28.000Z</time>
      </trkpt>
      <trkpt lat="48.70253" lon="1.7232">
        <ele>184.60000610352</ele>
        <time>2015-01-27T12:20:35.000Z</time>
      </trkpt>
      <trkpt lat="48.70249" lon="1.72339">
        <ele>183.80000305176</ele>
        <time>2015-01-27T12:20:43.000Z</time>
      </trkpt>
      <trkpt lat="48.70246" lon="1.72362">
        <ele>183</ele>
        <time>2015-01-27T12:20:50.000Z</time>
      </trkpt>
      <trkpt lat="48.70242" lon="1.72377">
        <ele>182.39999389648</ele>
        <time>2015-01-27T12:20:56.000Z</time>
      </trkpt>
      <trkpt lat="48.70241" lon="1.72394">
        <ele>183</ele>
        <time>2015-01-27T12:21:03.000Z</time>
      </trkpt>
      <trkpt lat="48.70237" lon="1.72412">
        <ele>183.19999694824</ele>
        <time>2015-01-27T12:21:10.000Z</time>
      </trkpt>
      <trkpt lat="48.70233" lon="1.72426">
        <ele>183</ele>
        <time>2015-01-27T12:21:16.000Z</time>
      </trkpt>
      <trkpt lat="48.70231" lon="1.72437">
        <ele>182.60000610352</ele>
        <time>2015-01-27T12:21:21.000Z</time>
      </trkpt>
      <trkpt lat="48.70226" lon="1.72453">
        <ele>182.60000610352</ele>
        <time>2015-01-27T12:21:28.000Z</time>
      </trkpt>
      <trkpt lat="48.70222" lon="1.72464">
        <ele>182.80000305176</ele>
        <time>2015-01-27T12:21:33.000Z</time>
      </trkpt>
      <trkpt lat="48.70224" lon="1.72481">
        <ele>182.39999389648</ele>
        <time>2015-01-27T12:21:40.000Z</time>
      </trkpt>
      <trkpt lat="48.70225" lon="1.72484">
        <ele>182.39999389648</ele>
        <time>2015-01-27T12:21:41.000Z</time>
      </trkpt>
      <trkpt lat="48.70219" lon="1.725">
        <ele>182.39999389648</ele>
        <time>2015-01-27T12:21:47.000Z</time>
      </trkpt>
      <trkpt lat="48.70214" lon="1.72528">
        <ele>182.19999694824</ele>
        <time>2015-01-27T12:21:53.000Z</time>
      </trkpt>
      <trkpt lat="48.70209" lon="1.7256">
        <ele>182.19999694824</ele>
        <time>2015-01-27T12:21:59.000Z</time>
      </trkpt>
      <trkpt lat="48.70199" lon="1.72601">
        <ele>182</ele>
        <time>2015-01-27T12:22:06.000Z</time>
      </trkpt>
      <trkpt lat="48.70198" lon="1.72606">
        <ele>181.80000305176</ele>
        <time>2015-01-27T12:22:07.000Z</time>
      </trkpt>
      <trkpt lat="48.70195" lon="1.72618">
        <ele>181.39999389648</ele>
        <time>2015-01-27T12:22:09.000Z</time>
      </trkpt>
      <trkpt lat="48.70188" lon="1.72644">
        <ele>180.39999389648</ele>
        <time>2015-01-27T12:22:13.000Z</time>
      </trkpt>
      <trkpt lat="48.70176" lon="1.72692">
        <ele>178</ele>
        <time>2015-01-27T12:22:21.000Z</time>
      </trkpt>
      <trkpt lat="48.70171" lon="1.72716">
        <ele>176.80000305176</ele>
        <time>2015-01-27T12:22:25.000Z</time>
      </trkpt>
      <trkpt lat="48.70161" lon="1.72748">
        <ele>177.39999389648</ele>
        <time>2015-01-27T12:22:30.000Z</time>
      </trkpt>
      <trkpt lat="48.70143" lon="1.72796">
        <ele>178.19999694824</ele>
        <time>2015-01-27T12:22:38.000Z</time>
      </trkpt>
      <trkpt lat="48.70142" lon="1.72802">
        <ele>178.19999694824</ele>
        <time>2015-01-27T12:22:39.000Z</time>
      </trkpt>
      <trkpt lat="48.70138" lon="1.72811">
        <ele>178.39999389648</ele>
        <time>2015-01-27T12:22:41.000Z</time>
      </trkpt>
      <trkpt lat="48.70135" lon="1.72825">
        <ele>178.60000610352</ele>
        <time>2015-01-27T12:22:45.000Z</time>
      </trkpt>
      <trkpt lat="48.70129" lon="1.72843">
        <ele>178.60000610352</ele>
        <time>2015-01-27T12:22:53.000Z</time>
      </trkpt>
      <trkpt lat="48.70126" lon="1.72852">
        <ele>178.60000610352</ele>
        <time>2015-01-27T12:22:56.000Z</time>
      </trkpt>
      <trkpt lat="48.70119" lon="1.7287">
        <ele>178.60000610352</ele>
        <time>2015-01-27T12:23:04.000Z</time>
      </trkpt>
      <trkpt lat="48.70113" lon="1.72886">
        <ele>178.80000305176</ele>
        <time>2015-01-27T12:23:12.000Z</time>
      </trkpt>
      <trkpt lat="48.70107" lon="1.72908">
        <ele>178.80000305176</ele>
        <time>2015-01-27T12:23:22.000Z</time>
      </trkpt>
      <trkpt lat="48.70098" lon="1.72927">
        <ele>179.60000610352</ele>
        <time>2015-01-27T12:23:31.000Z</time>
      </trkpt>
      <trkpt lat="48.70095" lon="1.72941">
        <ele>180</ele>
        <time>2015-01-27T12:23:38.000Z</time>
      </trkpt>
      <trkpt lat="48.70089" lon="1.72956">
        <ele>180.60000610352</ele>
        <time>2015-01-27T12:23:46.000Z</time>
      </trkpt>
      <trkpt lat="48.70084" lon="1.7297">
        <ele>181.19999694824</ele>
        <time>2015-01-27T12:23:53.000Z</time>
      </trkpt>
      <trkpt lat="48.70079" lon="1.72989">
        <ele>182.39999389648</ele>
        <time>2015-01-27T12:24:01.000Z</time>
      </trkpt>
      <trkpt lat="48.70073" lon="1.73009">
        <ele>183.19999694824</ele>
        <time>2015-01-27T12:24:10.000Z</time>
      </trkpt>
      <trkpt lat="48.70072" lon="1.73018">
        <ele>183.39999389648</ele>
        <time>2015-01-27T12:24:15.000Z</time>
      </trkpt>
      <trkpt lat="48.70066" lon="1.73029">
        <ele>184</ele>
        <time>2015-01-27T12:24:21.000Z</time>
      </trkpt>
      <trkpt lat="48.7006" lon="1.73046">
        <ele>184.19999694824</ele>
        <time>2015-01-27T12:24:29.000Z</time>
      </trkpt>
      <trkpt lat="48.70056" lon="1.73062">
        <ele>184</ele>
        <time>2015-01-27T12:24:36.000Z</time>
      </trkpt>
      <trkpt lat="48.70051" lon="1.73075">
        <ele>184.19999694824</ele>
        <time>2015-01-27T12:24:42.000Z</time>
      </trkpt>
      <trkpt lat="48.70046" lon="1.73088">
        <ele>184.39999389648</ele>
        <time>2015-01-27T12:24:48.000Z</time>
      </trkpt>
      <trkpt lat="48.70041" lon="1.73103">
        <ele>184.39999389648</ele>
        <time>2015-01-27T12:24:54.000Z</time>
      </trkpt>
      <trkpt lat="48.70038" lon="1.73116">
        <ele>184</ele>
        <time>2015-01-27T12:24:59.000Z</time>
      </trkpt>
      <trkpt lat="48.70035" lon="1.73132">
        <ele>183.39999389648</ele>
        <time>2015-01-27T12:25:06.000Z</time>
      </trkpt>
      <trkpt lat="48.70029" lon="1.73149">
        <ele>183</ele>
        <time>2015-01-27T12:25:14.000Z</time>
      </trkpt>
      <trkpt lat="48.70022" lon="1.73166">
        <ele>182.39999389648</ele>
        <time>2015-01-27T12:25:21.000Z</time>
      </trkpt>
      <trkpt lat="48.70015" lon="1.73183">
        <ele>181</ele>
        <time>2015-01-27T12:25:27.000Z</time>
      </trkpt>
      <trkpt lat="48.70006" lon="1.732">
        <ele>179.39999389648</ele>
        <time>2015-01-27T12:25:32.000Z</time>
      </trkpt>
      <trkpt lat="48.69993" lon="1.73229">
        <ele>177.39999389648</ele>
        <time>2015-01-27T12:25:39.000Z</time>
      </trkpt>
      <trkpt lat="48.69984" lon="1.73249">
        <ele>176.80000305176</ele>
        <time>2015-01-27T12:25:45.000Z</time>
      </trkpt>
      <trkpt lat="48.6998" lon="1.73259">
        <ele>176.80000305176</ele>
        <time>2015-01-27T12:25:49.000Z</time>
      </trkpt>
      <trkpt lat="48.69972" lon="1.73268">
        <ele>176.60000610352</ele>
        <time>2015-01-27T12:25:56.000Z</time>
      </trkpt>
      <trkpt lat="48.69966" lon="1.73279">
        <ele>176.80000305176</ele>
        <time>2015-01-27T12:26:02.000Z</time>
      </trkpt>
      <trkpt lat="48.69961" lon="1.7329">
        <ele>176.80000305176</ele>
        <time>2015-01-27T12:26:08.000Z</time>
      </trkpt>
      <trkpt lat="48.69955" lon="1.73301">
        <ele>177</ele>
        <time>2015-01-27T12:26:14.000Z</time>
      </trkpt>
      <trkpt lat="48.6995" lon="1.73312">
        <ele>177.19999694824</ele>
        <time>2015-01-27T12:26:20.000Z</time>
      </trkpt>
      <trkpt lat="48.69943" lon="1.73324">
        <ele>177.19999694824</ele>
        <time>2015-01-27T12:26:27.000Z</time>
      </trkpt>
      <trkpt lat="48.69937" lon="1.73336">
        <ele>177.39999389648</ele>
        <time>2015-01-27T12:26:33.000Z</time>
      </trkpt>
      <trkpt lat="48.69929" lon="1.73349">
        <ele>177.80000305176</ele>
        <time>2015-01-27T12:26:40.000Z</time>
      </trkpt>
      <trkpt lat="48.69923" lon="1.73367">
        <ele>178.19999694824</ele>
        <time>2015-01-27T12:26:48.000Z</time>
      </trkpt>
      <trkpt lat="48.69917" lon="1.73382">
        <ele>178.80000305176</ele>
        <time>2015-01-27T12:26:56.000Z</time>
      </trkpt>
      <trkpt lat="48.6991" lon="1.73393">
        <ele>178.80000305176</ele>
        <time>2015-01-27T12:27:02.000Z</time>
      </trkpt>
      <trkpt lat="48.69908" lon="1.73396">
        <ele>179</ele>
        <time>2015-01-27T12:27:04.000Z</time>
      </trkpt>
      <trkpt lat="48.69904" lon="1.73409">
        <ele>178.80000305176</ele>
        <time>2015-01-27T12:27:10.000Z</time>
      </trkpt>
      <trkpt lat="48.69898" lon="1.73419">
        <ele>178.39999389648</ele>
        <time>2015-01-27T12:27:16.000Z</time>
      </trkpt>
      <trkpt lat="48.69892" lon="1.7343">
        <ele>178</ele>
        <time>2015-01-27T12:27:22.000Z</time>
      </trkpt>
      <trkpt lat="48.69885" lon="1.73438">
        <ele>177.80000305176</ele>
        <time>2015-01-27T12:27:28.000Z</time>
      </trkpt>
      <trkpt lat="48.69884" lon="1.73439">
        <ele>177.80000305176</ele>
        <time>2015-01-27T12:27:29.000Z</time>
      </trkpt>
      <trkpt lat="48.6988" lon="1.7345">
        <ele>178</ele>
        <time>2015-01-27T12:27:34.000Z</time>
      </trkpt>
      <trkpt lat="48.69877" lon="1.73459">
        <ele>178.19999694824</ele>
        <time>2015-01-27T12:27:38.000Z</time>
      </trkpt>
      <trkpt lat="48.69879" lon="1.73472">
        <ele>178</ele>
        <time>2015-01-27T12:27:44.000Z</time>
      </trkpt>
      <trkpt lat="48.6988" lon="1.73474">
        <ele>178</ele>
        <time>2015-01-27T12:27:45.000Z</time>
      </trkpt>
      <trkpt lat="48.69881" lon="1.73478">
        <ele>178</ele>
        <time>2015-01-27T12:27:47.000Z</time>
      </trkpt>
      <trkpt lat="48.69878" lon="1.73487">
        <ele>178.19999694824</ele>
        <time>2015-01-27T12:27:52.000Z</time>
      </trkpt>
      <trkpt lat="48.69877" lon="1.73488">
        <ele>178.19999694824</ele>
        <time>2015-01-27T12:27:53.000Z</time>
      </trkpt>
      <trkpt lat="48.69868" lon="1.73492">
        <ele>178.39999389648</ele>
        <time>2015-01-27T12:27:59.000Z</time>
      </trkpt>
      <trkpt lat="48.69866" lon="1.73495">
        <ele>178.60000610352</ele>
        <time>2015-01-27T12:28:01.000Z</time>
      </trkpt>
      <trkpt lat="48.69864" lon="1.73503">
        <ele>178.60000610352</ele>
        <time>2015-01-27T12:28:05.000Z</time>
      </trkpt>
      <trkpt lat="48.69857" lon="1.73516">
        <ele>178.80000305176</ele>
        <time>2015-01-27T12:28:12.000Z</time>
      </trkpt>
      <trkpt lat="48.69856" lon="1.73516">
        <ele>179</ele>
        <time>2015-01-27T12:28:13.000Z</time>
      </trkpt>
      <trkpt lat="48.69852" lon="1.73526">
        <ele>179</ele>
        <time>2015-01-27T12:28:18.000Z</time>
      </trkpt>
      <trkpt lat="48.69849" lon="1.73534">
        <ele>179</ele>
        <time>2015-01-27T12:28:22.000Z</time>
      </trkpt>
      <trkpt lat="48.69844" lon="1.7354">
        <ele>179.19999694824</ele>
        <time>2015-01-27T12:28:27.000Z</time>
      </trkpt>
      <trkpt lat="48.69838" lon="1.73542">
        <ele>179.39999389648</ele>
        <time>2015-01-27T12:28:32.000Z</time>
      </trkpt>
      <trkpt lat="48.69833" lon="1.73552">
        <ele>179.39999389648</ele>
        <time>2015-01-27T12:28:38.000Z</time>
      </trkpt>
      <trkpt lat="48.69829" lon="1.7356">
        <ele>179.39999389648</ele>
        <time>2015-01-27T12:28:42.000Z</time>
      </trkpt>
      <trkpt lat="48.6982" lon="1.73571">
        <ele>179.39999389648</ele>
        <time>2015-01-27T12:28:49.000Z</time>
      </trkpt>
      <trkpt lat="48.69813" lon="1.73589">
        <ele>179.39999389648</ele>
        <time>2015-01-27T12:28:56.000Z</time>
      </trkpt>
      <trkpt lat="48.69808" lon="1.736">
        <ele>179.60000610352</ele>
        <time>2015-01-27T12:29:01.000Z</time>
      </trkpt>
      <trkpt lat="48.69807" lon="1.73604">
        <ele>179.60000610352</ele>
        <time>2015-01-27T12:29:03.000Z</time>
      </trkpt>
      <trkpt lat="48.69803" lon="1.73612">
        <ele>179.60000610352</ele>
        <time>2015-01-27T12:29:07.000Z</time>
      </trkpt>
      <trkpt lat="48.698" lon="1.7362">
        <ele>179.60000610352</ele>
        <time>2015-01-27T12:29:13.000Z</time>
      </trkpt>
      <trkpt lat="48.69794" lon="1.73627">
        <ele>179.80000305176</ele>
        <time>2015-01-27T12:29:18.000Z</time>
      </trkpt>
      <trkpt lat="48.69788" lon="1.73638">
        <ele>179.80000305176</ele>
        <time>2015-01-27T12:29:24.000Z</time>
      </trkpt>
      <trkpt lat="48.69785" lon="1.73645">
        <ele>179.80000305176</ele>
        <time>2015-01-27T12:29:29.000Z</time>
      </trkpt>
      <trkpt lat="48.6978" lon="1.7365">
        <ele>179.80000305176</ele>
        <time>2015-01-27T12:29:33.000Z</time>
      </trkpt>
      <trkpt lat="48.69775" lon="1.73664">
        <ele>179.80000305176</ele>
        <time>2015-01-27T12:29:39.000Z</time>
      </trkpt>
      <trkpt lat="48.69773" lon="1.73677">
        <ele>179.19999694824</ele>
        <time>2015-01-27T12:29:45.000Z</time>
      </trkpt>
      <trkpt lat="48.69772" lon="1.73693">
        <ele>178.60000610352</ele>
        <time>2015-01-27T12:29:51.000Z</time>
      </trkpt>
      <trkpt lat="48.69775" lon="1.73707">
        <ele>178.19999694824</ele>
        <time>2015-01-27T12:29:57.000Z</time>
      </trkpt>
      <trkpt lat="48.69778" lon="1.73722">
        <ele>177.60000610352</ele>
        <time>2015-01-27T12:30:05.000Z</time>
      </trkpt>
      <trkpt lat="48.69783" lon="1.73737">
        <ele>177.19999694824</ele>
        <time>2015-01-27T12:30:12.000Z</time>
      </trkpt>
      <trkpt lat="48.69786" lon="1.73754">
        <ele>176.60000610352</ele>
        <time>2015-01-27T12:30:19.000Z</time>
      </trkpt>
      <trkpt lat="48.69791" lon="1.73768">
        <ele>176.19999694824</ele>
        <time>2015-01-27T12:30:24.000Z</time>
      </trkpt>
      <trkpt lat="48.69796" lon="1.73791">
        <ele>175.80000305176</ele>
        <time>2015-01-27T12:30:30.000Z</time>
      </trkpt>
      <trkpt lat="48.69801" lon="1.73817">
        <ele>175</ele>
        <time>2015-01-27T12:30:35.000Z</time>
      </trkpt>
      <trkpt lat="48.69814" lon="1.73864">
        <ele>174</ele>
        <time>2015-01-27T12:30:44.000Z</time>
      </trkpt>
      <trkpt lat="48.69822" lon="1.73895">
        <ele>173.80000305176</ele>
        <time>2015-01-27T12:30:50.000Z</time>
      </trkpt>
      <trkpt lat="48.69833" lon="1.7394">
        <ele>172.60000610352</ele>
        <time>2015-01-27T12:30:58.000Z</time>
      </trkpt>
      <trkpt lat="48.69842" lon="1.73979">
        <ele>171.60000610352</ele>
        <time>2015-01-27T12:31:05.000Z</time>
      </trkpt>
      <trkpt lat="48.69848" lon="1.74005">
        <ele>171</ele>
        <time>2015-01-27T12:31:10.000Z</time>
      </trkpt>
      <trkpt lat="48.69855" lon="1.74033">
        <ele>170.39999389648</ele>
        <time>2015-01-27T12:31:15.000Z</time>
      </trkpt>
      <trkpt lat="48.69859" lon="1.74052">
        <ele>170.39999389648</ele>
        <time>2015-01-27T12:31:18.000Z</time>
      </trkpt>
      <trkpt lat="48.69865" lon="1.74077">
        <ele>170</ele>
        <time>2015-01-27T12:31:22.000Z</time>
      </trkpt>
      <trkpt lat="48.69875" lon="1.74128">
        <ele>168</ele>
        <time>2015-01-27T12:31:30.000Z</time>
      </trkpt>
      <trkpt lat="48.69876" lon="1.74134">
        <ele>167.80000305176</ele>
        <time>2015-01-27T12:31:31.000Z</time>
      </trkpt>
      <trkpt lat="48.6988" lon="1.74147">
        <ele>167.39999389648</ele>
        <time>2015-01-27T12:31:33.000Z</time>
      </trkpt>
      <trkpt lat="48.69883" lon="1.74156">
        <ele>167</ele>
        <time>2015-01-27T12:31:35.000Z</time>
      </trkpt>
      <trkpt lat="48.69891" lon="1.74179">
        <ele>167</ele>
        <time>2015-01-27T12:31:40.000Z</time>
      </trkpt>
      <trkpt lat="48.69898" lon="1.74206">
        <ele>167</ele>
        <time>2015-01-27T12:31:45.000Z</time>
      </trkpt>
      <trkpt lat="48.69903" lon="1.74231">
        <ele>167.19999694824</ele>
        <time>2015-01-27T12:31:49.000Z</time>
      </trkpt>
      <trkpt lat="48.69904" lon="1.74237">
        <ele>167.19999694824</ele>
        <time>2015-01-27T12:31:50.000Z</time>
      </trkpt>
      <trkpt lat="48.69909" lon="1.74254">
        <ele>167</ele>
        <time>2015-01-27T12:31:53.000Z</time>
      </trkpt>
      <trkpt lat="48.69916" lon="1.74282">
        <ele>166.39999389648</ele>
        <time>2015-01-27T12:31:58.000Z</time>
      </trkpt>
      <trkpt lat="48.69922" lon="1.74312">
        <ele>165.80000305176</ele>
        <time>2015-01-27T12:32:03.000Z</time>
      </trkpt>
      <trkpt lat="48.69927" lon="1.74335">
        <ele>165.39999389648</ele>
        <time>2015-01-27T12:32:07.000Z</time>
      </trkpt>
      <trkpt lat="48.69933" lon="1.74358">
        <ele>165</ele>
        <time>2015-01-27T12:32:11.000Z</time>
      </trkpt>
      <trkpt lat="48.69946" lon="1.74401">
        <ele>164.19999694824</ele>
        <time>2015-01-27T12:32:19.000Z</time>
      </trkpt>
      <trkpt lat="48.69952" lon="1.74435">
        <ele>163.80000305176</ele>
        <time>2015-01-27T12:32:25.000Z</time>
      </trkpt>
      <trkpt lat="48.6996" lon="1.74475">
        <ele>162.80000305176</ele>
        <time>2015-01-27T12:32:32.000Z</time>
      </trkpt>
      <trkpt lat="48.69966" lon="1.74506">
        <ele>163</ele>
        <time>2015-01-27T12:32:37.000Z</time>
      </trkpt>
      <trkpt lat="48.69975" lon="1.74539">
        <ele>164.19999694824</ele>
        <time>2015-01-27T12:32:43.000Z</time>
      </trkpt>
      <trkpt lat="48.69989" lon="1.74583">
        <ele>165.39999389648</ele>
        <time>2015-01-27T12:32:51.000Z</time>
      </trkpt>
      <trkpt lat="48.69998" lon="1.74626">
        <ele>166</ele>
        <time>2015-01-27T12:32:58.000Z</time>
      </trkpt>
      <trkpt lat="48.70003" lon="1.74643">
        <ele>166.80000305176</ele>
        <time>2015-01-27T12:33:01.000Z</time>
      </trkpt>
      <trkpt lat="48.70011" lon="1.74675">
        <ele>167.60000610352</ele>
        <time>2015-01-27T12:33:07.000Z</time>
      </trkpt>
      <trkpt lat="48.70018" lon="1.74707">
        <ele>167.80000305176</ele>
        <time>2015-01-27T12:33:13.000Z</time>
      </trkpt>
      <trkpt lat="48.70031" lon="1.74757">
        <ele>169</ele>
        <time>2015-01-27T12:33:23.000Z</time>
      </trkpt>
      <trkpt lat="48.70033" lon="1.74761">
        <ele>169.19999694824</ele>
        <time>2015-01-27T12:33:24.000Z</time>
      </trkpt>
      <trkpt lat="48.70038" lon="1.74778">
        <ele>170.19999694824</ele>
        <time>2015-01-27T12:33:29.000Z</time>
      </trkpt>
      <trkpt lat="48.70043" lon="1.74779">
        <ele>170.19999694824</ele>
        <time>2015-01-27T12:33:32.000Z</time>
      </trkpt>
      <trkpt lat="48.70053" lon="1.74775">
        <ele>170.60000610352</ele>
        <time>2015-01-27T12:33:40.000Z</time>
      </trkpt>
      <trkpt lat="48.7006" lon="1.74767">
        <ele>170.80000305176</ele>
        <time>2015-01-27T12:33:46.000Z</time>
      </trkpt>
      <trkpt lat="48.70069" lon="1.74765">
        <ele>171.60000610352</ele>
        <time>2015-01-27T12:33:52.000Z</time>
      </trkpt>
      <trkpt lat="48.7007" lon="1.74765">
        <ele>171.60000610352</ele>
        <time>2015-01-27T12:33:53.000Z</time>
      </trkpt>
      <trkpt lat="48.70081" lon="1.74761">
        <ele>172.39999389648</ele>
        <time>2015-01-27T12:34:00.000Z</time>
      </trkpt>
      <trkpt lat="48.70093" lon="1.74753">
        <ele>173.19999694824</ele>
        <time>2015-01-27T12:34:08.000Z</time>
      </trkpt>
      <trkpt lat="48.70096" lon="1.74752">
        <ele>173.39999389648</ele>
        <time>2015-01-27T12:34:10.000Z</time>
      </trkpt>
      <trkpt lat="48.70102" lon="1.74748">
        <ele>174</ele>
        <time>2015-01-27T12:34:15.000Z</time>
      </trkpt>
      <trkpt lat="48.70105" lon="1.74746">
        <ele>174</ele>
        <time>2015-01-27T12:34:17.000Z</time>
      </trkpt>
      <trkpt lat="48.70115" lon="1.74742">
        <ele>174.39999389648</ele>
        <time>2015-01-27T12:34:24.000Z</time>
      </trkpt>
      <trkpt lat="48.70121" lon="1.74741">
        <ele>174.60000610352</ele>
        <time>2015-01-27T12:34:28.000Z</time>
      </trkpt>
      <trkpt lat="48.70127" lon="1.74736">
        <ele>174.80000305176</ele>
        <time>2015-01-27T12:34:33.000Z</time>
      </trkpt>
      <trkpt lat="48.70133" lon="1.74727">
        <ele>175</ele>
        <time>2015-01-27T12:34:39.000Z</time>
      </trkpt>
      <trkpt lat="48.70143" lon="1.74722">
        <ele>175.19999694824</ele>
        <time>2015-01-27T12:34:45.000Z</time>
      </trkpt>
      <trkpt lat="48.70151" lon="1.74721">
        <ele>175.60000610352</ele>
        <time>2015-01-27T12:34:50.000Z</time>
      </trkpt>
      <trkpt lat="48.70161" lon="1.74716">
        <ele>175.80000305176</ele>
        <time>2015-01-27T12:34:55.000Z</time>
      </trkpt>
      <trkpt lat="48.70171" lon="1.74711">
        <ele>175.80000305176</ele>
        <time>2015-01-27T12:35:00.000Z</time>
      </trkpt>
      <trkpt lat="48.70183" lon="1.74706">
        <ele>175.39999389648</ele>
        <time>2015-01-27T12:35:08.000Z</time>
      </trkpt>
      <trkpt lat="48.70191" lon="1.74703">
        <ele>175</ele>
        <time>2015-01-27T12:35:13.000Z</time>
      </trkpt>
      <trkpt lat="48.70192" lon="1.74702">
        <ele>175</ele>
        <time>2015-01-27T12:35:14.000Z</time>
      </trkpt>
      <trkpt lat="48.702" lon="1.74695">
        <ele>174</ele>
        <time>2015-01-27T12:35:20.000Z</time>
      </trkpt>
      <trkpt lat="48.70209" lon="1.74692">
        <ele>173.19999694824</ele>
        <time>2015-01-27T12:35:25.000Z</time>
      </trkpt>
      <trkpt lat="48.70213" lon="1.7469">
        <ele>172.80000305176</ele>
        <time>2015-01-27T12:35:27.000Z</time>
      </trkpt>
      <trkpt lat="48.70223" lon="1.74685">
        <ele>172</ele>
        <time>2015-01-27T12:35:34.000Z</time>
      </trkpt>
      <trkpt lat="48.70231" lon="1.7468">
        <ele>171.19999694824</ele>
        <time>2015-01-27T12:35:40.000Z</time>
      </trkpt>
      <trkpt lat="48.70242" lon="1.74678">
        <ele>170.60000610352</ele>
        <time>2015-01-27T12:35:46.000Z</time>
      </trkpt>
      <trkpt lat="48.70254" lon="1.74673">
        <ele>169.60000610352</ele>
        <time>2015-01-27T12:35:54.000Z</time>
      </trkpt>
      <trkpt lat="48.70263" lon="1.74669">
        <ele>169</ele>
        <time>2015-01-27T12:36:00.000Z</time>
      </trkpt>
      <trkpt lat="48.70272" lon="1.74663">
        <ele>168.19999694824</ele>
        <time>2015-01-27T12:36:07.000Z</time>
      </trkpt>
      <trkpt lat="48.70275" lon="1.74663">
        <ele>168.19999694824</ele>
        <time>2015-01-27T12:36:09.000Z</time>
      </trkpt>
      <trkpt lat="48.70277" lon="1.74661">
        <ele>168</ele>
        <time>2015-01-27T12:36:12.000Z</time>
      </trkpt>
      <trkpt lat="48.70284" lon="1.7466">
        <ele>168</ele>
        <time>2015-01-27T12:36:18.000Z</time>
      </trkpt>
      <trkpt lat="48.70285" lon="1.7466">
        <ele>168.19999694824</ele>
        <time>2015-01-27T12:36:20.000Z</time>
      </trkpt>
      <trkpt lat="48.70285" lon="1.74671">
        <ele>168</ele>
        <time>2015-01-27T12:36:30.000Z</time>
      </trkpt>
      <trkpt lat="48.70284" lon="1.74682">
        <ele>168.39999389648</ele>
        <time>2015-01-27T12:36:33.000Z</time>
      </trkpt>
      <trkpt lat="48.70281" lon="1.74695">
        <ele>169</ele>
        <time>2015-01-27T12:36:39.000Z</time>
      </trkpt>
      <trkpt lat="48.70281" lon="1.74698">
        <ele>169.19999694824</ele>
        <time>2015-01-27T12:36:40.000Z</time>
      </trkpt>
      <trkpt lat="48.70276" lon="1.74721">
        <ele>170.19999694824</ele>
        <time>2015-01-27T12:36:50.000Z</time>
      </trkpt>
      <trkpt lat="48.70273" lon="1.74742">
        <ele>171</ele>
        <time>2015-01-27T12:36:59.000Z</time>
      </trkpt>
      <trkpt lat="48.70271" lon="1.74758">
        <ele>171.39999389648</ele>
        <time>2015-01-27T12:37:06.000Z</time>
      </trkpt>
      <trkpt lat="48.7027" lon="1.74769">
        <ele>171.80000305176</ele>
        <time>2015-01-27T12:37:12.000Z</time>
      </trkpt>
      <trkpt lat="48.70267" lon="1.74789">
        <ele>172.39999389648</ele>
        <time>2015-01-27T12:37:21.000Z</time>
      </trkpt>
      <trkpt lat="48.70265" lon="1.74804">
        <ele>173</ele>
        <time>2015-01-27T12:37:28.000Z</time>
      </trkpt>
      <trkpt lat="48.70262" lon="1.74823">
        <ele>173.19999694824</ele>
        <time>2015-01-27T12:37:37.000Z</time>
      </trkpt>
      <trkpt lat="48.7026" lon="1.74838">
        <ele>173.39999389648</ele>
        <time>2015-01-27T12:37:44.000Z</time>
      </trkpt>
      <trkpt lat="48.70257" lon="1.74858">
        <ele>173.39999389648</ele>
        <time>2015-01-27T12:37:53.000Z</time>
      </trkpt>
      <trkpt lat="48.70254" lon="1.74879">
        <ele>173.60000610352</ele>
        <time>2015-01-27T12:38:02.000Z</time>
      </trkpt>
      <trkpt lat="48.70252" lon="1.74895">
        <ele>173.60000610352</ele>
        <time>2015-01-27T12:38:09.000Z</time>
      </trkpt>
      <trkpt lat="48.70249" lon="1.74905">
        <ele>173.80000305176</ele>
        <time>2015-01-27T12:38:13.000Z</time>
      </trkpt>
      <trkpt lat="48.70248" lon="1.74917">
        <ele>174.39999389648</ele>
        <time>2015-01-27T12:38:19.000Z</time>
      </trkpt>
      <trkpt lat="48.70245" lon="1.74931">
        <ele>175.19999694824</ele>
        <time>2015-01-27T12:38:26.000Z</time>
      </trkpt>
      <trkpt lat="48.70244" lon="1.74939">
        <ele>175.60000610352</ele>
        <time>2015-01-27T12:38:30.000Z</time>
      </trkpt>
      <trkpt lat="48.70241" lon="1.7496">
        <ele>176.60000610352</ele>
        <time>2015-01-27T12:38:39.000Z</time>
      </trkpt>
      <trkpt lat="48.70239" lon="1.74979">
        <ele>177.19999694824</ele>
        <time>2015-01-27T12:38:44.000Z</time>
      </trkpt>
      <trkpt lat="48.70236" lon="1.75005">
        <ele>177.80000305176</ele>
        <time>2015-01-27T12:38:50.000Z</time>
      </trkpt>
      <trkpt lat="48.70232" lon="1.75027">
        <ele>178.39999389648</ele>
        <time>2015-01-27T12:38:55.000Z</time>
      </trkpt>
      <trkpt lat="48.70228" lon="1.75046">
        <ele>178.60000610352</ele>
        <time>2015-01-27T12:39:00.000Z</time>
      </trkpt>
      <trkpt lat="48.70226" lon="1.75073">
        <ele>178.39999389648</ele>
        <time>2015-01-27T12:39:05.000Z</time>
      </trkpt>
      <trkpt lat="48.70222" lon="1.75097">
        <ele>178.39999389648</ele>
        <time>2015-01-27T12:39:10.000Z</time>
      </trkpt>
      <trkpt lat="48.7022" lon="1.75114">
        <ele>178.19999694824</ele>
        <time>2015-01-27T12:39:16.000Z</time>
      </trkpt>
      <trkpt lat="48.70218" lon="1.75128">
        <ele>177.80000305176</ele>
        <time>2015-01-27T12:39:22.000Z</time>
      </trkpt>
      <trkpt lat="48.70214" lon="1.75149">
        <ele>177</ele>
        <time>2015-01-27T12:39:29.000Z</time>
      </trkpt>
      <trkpt lat="48.70211" lon="1.75167">
        <ele>177</ele>
        <time>2015-01-27T12:39:36.000Z</time>
      </trkpt>
      <trkpt lat="48.70211" lon="1.75169">
        <ele>177</ele>
        <time>2015-01-27T12:39:37.000Z</time>
      </trkpt>
      <trkpt lat="48.70212" lon="1.75174">
        <ele>177.19999694824</ele>
        <time>2015-01-27T12:39:40.000Z</time>
      </trkpt>
      <trkpt lat="48.70211" lon="1.7519">
        <ele>177.19999694824</ele>
        <time>2015-01-27T12:39:47.000Z</time>
      </trkpt>
      <trkpt lat="48.70208" lon="1.75205">
        <ele>177</ele>
        <time>2015-01-27T12:39:53.000Z</time>
      </trkpt>
      <trkpt lat="48.70203" lon="1.75213">
        <ele>176.80000305176</ele>
        <time>2015-01-27T12:39:59.000Z</time>
      </trkpt>
      <trkpt lat="48.702" lon="1.75222">
        <ele>176.60000610352</ele>
        <time>2015-01-27T12:40:04.000Z</time>
      </trkpt>
      <trkpt lat="48.702" lon="1.75243">
        <ele>176.60000610352</ele>
        <time>2015-01-27T12:40:14.000Z</time>
      </trkpt>
      <trkpt lat="48.70205" lon="1.75246">
        <ele>176.80000305176</ele>
        <time>2015-01-27T12:40:18.000Z</time>
      </trkpt>
      <trkpt lat="48.70214" lon="1.7524">
        <ele>177.19999694824</ele>
        <time>2015-01-27T12:40:24.000Z</time>
      </trkpt>
      <trkpt lat="48.70225" lon="1.75238">
        <ele>177.80000305176</ele>
        <time>2015-01-27T12:40:31.000Z</time>
      </trkpt>
      <trkpt lat="48.70233" lon="1.75243">
        <ele>178.19999694824</ele>
        <time>2015-01-27T12:40:37.000Z</time>
      </trkpt>
      <trkpt lat="48.70241" lon="1.75248">
        <ele>178.39999389648</ele>
        <time>2015-01-27T12:40:44.000Z</time>
      </trkpt>
      <trkpt lat="48.7025" lon="1.75257">
        <ele>178.80000305176</ele>
        <time>2015-01-27T12:40:50.000Z</time>
      </trkpt>
      <trkpt lat="48.70251" lon="1.75258">
        <ele>178.80000305176</ele>
        <time>2015-01-27T12:40:51.000Z</time>
      </trkpt>
      <trkpt lat="48.70262" lon="1.75269">
        <ele>179.19999694824</ele>
        <time>2015-01-27T12:41:00.000Z</time>
      </trkpt>
      <trkpt lat="48.70268" lon="1.75275">
        <ele>179.39999389648</ele>
        <time>2015-01-27T12:41:05.000Z</time>
      </trkpt>
      <trkpt lat="48.70271" lon="1.75277">
        <ele>179.60000610352</ele>
        <time>2015-01-27T12:41:07.000Z</time>
      </trkpt>
      <trkpt lat="48.70277" lon="1.75286">
        <ele>179.60000610352</ele>
        <time>2015-01-27T12:41:13.000Z</time>
      </trkpt>
      <trkpt lat="48.70283" lon="1.75291">
        <ele>179.60000610352</ele>
        <time>2015-01-27T12:41:18.000Z</time>
      </trkpt>
      <trkpt lat="48.70291" lon="1.75296">
        <ele>179.80000305176</ele>
        <time>2015-01-27T12:41:24.000Z</time>
      </trkpt>
      <trkpt lat="48.70299" lon="1.75299">
        <ele>180</ele>
        <time>2015-01-27T12:41:29.000Z</time>
      </trkpt>
      <trkpt lat="48.70303" lon="1.75308">
        <ele>180</ele>
        <time>2015-01-27T12:41:34.000Z</time>
      </trkpt>
      <trkpt lat="48.70308" lon="1.75318">
        <ele>180</ele>
        <time>2015-01-27T12:41:40.000Z</time>
      </trkpt>
      <trkpt lat="48.7031" lon="1.75324">
        <ele>180</ele>
        <time>2015-01-27T12:41:43.000Z</time>
      </trkpt>
      <trkpt lat="48.70315" lon="1.75337">
        <ele>180</ele>
        <time>2015-01-27T12:41:50.000Z</time>
      </trkpt>
      <trkpt lat="48.70322" lon="1.75347">
        <ele>180.19999694824</ele>
        <time>2015-01-27T12:41:56.000Z</time>
      </trkpt>
      <trkpt lat="48.70324" lon="1.75347">
        <ele>180.19999694824</ele>
        <time>2015-01-27T12:41:57.000Z</time>
      </trkpt>
      <trkpt lat="48.70327" lon="1.75351">
        <ele>180.39999389648</ele>
        <time>2015-01-27T12:42:01.000Z</time>
      </trkpt>
      <trkpt lat="48.70332" lon="1.75355">
        <ele>180.39999389648</ele>
        <time>2015-01-27T12:42:06.000Z</time>
      </trkpt>
      <trkpt lat="48.70342" lon="1.75364">
        <ele>180.80000305176</ele>
        <time>2015-01-27T12:42:14.000Z</time>
      </trkpt>
      <trkpt lat="48.70348" lon="1.75372">
        <ele>180.80000305176</ele>
        <time>2015-01-27T12:42:19.000Z</time>
      </trkpt>
      <trkpt lat="48.70354" lon="1.75379">
        <ele>181</ele>
        <time>2015-01-27T12:42:24.000Z</time>
      </trkpt>
      <trkpt lat="48.70364" lon="1.75385">
        <ele>181.19999694824</ele>
        <time>2015-01-27T12:42:31.000Z</time>
      </trkpt>
      <trkpt lat="48.70365" lon="1.75387">
        <ele>181.19999694824</ele>
        <time>2015-01-27T12:42:32.000Z</time>
      </trkpt>
      <trkpt lat="48.70369" lon="1.75394">
        <ele>181.19999694824</ele>
        <time>2015-01-27T12:42:37.000Z</time>
      </trkpt>
      <trkpt lat="48.70374" lon="1.75397">
        <ele>181.19999694824</ele>
        <time>2015-01-27T12:42:42.000Z</time>
      </trkpt>
      <trkpt lat="48.7038" lon="1.754">
        <ele>181.39999389648</ele>
        <time>2015-01-27T12:42:46.000Z</time>
      </trkpt>
      <trkpt lat="48.7039" lon="1.75398">
        <ele>181.39999389648</ele>
        <time>2015-01-27T12:42:53.000Z</time>
      </trkpt>
      <trkpt lat="48.70394" lon="1.75396">
        <ele>181.39999389648</ele>
        <time>2015-01-27T12:43:00.000Z</time>
      </trkpt>
      <trkpt lat="48.70398" lon="1.75402">
        <ele>181.60000610352</ele>
        <time>2015-01-27T12:43:05.000Z</time>
      </trkpt>
      <trkpt lat="48.704" lon="1.75403">
        <ele>181.60000610352</ele>
        <time>2015-01-27T12:43:10.000Z</time>
      </trkpt>
      <trkpt lat="48.70402" lon="1.75403">
        <ele>181.60000610352</ele>
        <time>2015-01-27T12:43:13.000Z</time>
      </trkpt>
      <trkpt lat="48.70402" lon="1.75403">
        <ele>181.60000610352</ele>
        <time>2015-01-27T12:43:17.000Z</time>
      </trkpt>
      <trkpt lat="48.70401" lon="1.75405">
        <ele>181.60000610352</ele>
        <time>2015-01-27T12:43:22.000Z</time>
      </trkpt>
      <trkpt lat="48.70411" lon="1.75419">
        <ele>182</ele>
        <time>2015-01-27T12:44:11.000Z</time>
      </trkpt>
      <trkpt lat="48.70417" lon="1.75422">
        <ele>182.19999694824</ele>
        <time>2015-01-27T12:44:15.000Z</time>
      </trkpt>
      <trkpt lat="48.70424" lon="1.75427">
        <ele>182.39999389648</ele>
        <time>2015-01-27T12:44:22.000Z</time>
      </trkpt>
      <trkpt lat="48.70432" lon="1.75432">
        <ele>182.60000610352</ele>
        <time>2015-01-27T12:44:29.000Z</time>
      </trkpt>
      <trkpt lat="48.70437" lon="1.75435">
        <ele>182.80000305176</ele>
        <time>2015-01-27T12:44:33.000Z</time>
      </trkpt>
      <trkpt lat="48.70447" lon="1.75444">
        <ele>182.60000610352</ele>
        <time>2015-01-27T12:44:41.000Z</time>
      </trkpt>
      <trkpt lat="48.70451" lon="1.75448">
        <ele>182.60000610352</ele>
        <time>2015-01-27T12:44:45.000Z</time>
      </trkpt>
      <trkpt lat="48.70459" lon="1.75457">
        <ele>182.39999389648</ele>
        <time>2015-01-27T12:44:54.000Z</time>
      </trkpt>
      <trkpt lat="48.70467" lon="1.75464">
        <ele>182.39999389648</ele>
        <time>2015-01-27T12:45:01.000Z</time>
      </trkpt>
      <trkpt lat="48.70474" lon="1.75473">
        <ele>182.19999694824</ele>
        <time>2015-01-27T12:45:09.000Z</time>
      </trkpt>
      <trkpt lat="48.70482" lon="1.75479">
        <ele>182.19999694824</ele>
        <time>2015-01-27T12:45:16.000Z</time>
      </trkpt>
      <trkpt lat="48.70493" lon="1.75491">
        <ele>182.19999694824</ele>
        <time>2015-01-27T12:45:25.000Z</time>
      </trkpt>
      <trkpt lat="48.70493" lon="1.75493">
        <ele>182.19999694824</ele>
        <time>2015-01-27T12:45:26.000Z</time>
      </trkpt>
      <trkpt lat="48.70497" lon="1.75497">
        <ele>182.19999694824</ele>
        <time>2015-01-27T12:45:29.000Z</time>
      </trkpt>
      <trkpt lat="48.70505" lon="1.75501">
        <ele>182.19999694824</ele>
        <time>2015-01-27T12:45:36.000Z</time>
      </trkpt>
      <trkpt lat="48.7051" lon="1.75506">
        <ele>182.19999694824</ele>
        <time>2015-01-27T12:45:40.000Z</time>
      </trkpt>
      <trkpt lat="48.70514" lon="1.7551">
        <ele>182.19999694824</ele>
        <time>2015-01-27T12:45:43.000Z</time>
      </trkpt>
      <trkpt lat="48.70521" lon="1.75518">
        <ele>182.39999389648</ele>
        <time>2015-01-27T12:45:49.000Z</time>
      </trkpt>
      <trkpt lat="48.70522" lon="1.75519">
        <ele>182.39999389648</ele>
        <time>2015-01-27T12:45:50.000Z</time>
      </trkpt>
      <trkpt lat="48.70531" lon="1.75527">
        <ele>182.60000610352</ele>
        <time>2015-01-27T12:45:56.000Z</time>
      </trkpt>
      <trkpt lat="48.70538" lon="1.75534">
        <ele>182.80000305176</ele>
        <time>2015-01-27T12:46:01.000Z</time>
      </trkpt>
      <trkpt lat="48.70539" lon="1.75535">
        <ele>182.80000305176</ele>
        <time>2015-01-27T12:46:02.000Z</time>
      </trkpt>
      <trkpt lat="48.70544" lon="1.75542">
        <ele>183</ele>
        <time>2015-01-27T12:46:08.000Z</time>
      </trkpt>
      <trkpt lat="48.70547" lon="1.75546">
        <ele>183.19999694824</ele>
        <time>2015-01-27T12:46:12.000Z</time>
      </trkpt>
      <trkpt lat="48.70551" lon="1.75551">
        <ele>183.19999694824</ele>
        <time>2015-01-27T12:46:17.000Z</time>
      </trkpt>
      <trkpt lat="48.70556" lon="1.75557">
        <ele>183.60000610352</ele>
        <time>2015-01-27T12:46:23.000Z</time>
      </trkpt>
      <trkpt lat="48.70565" lon="1.75564">
        <ele>183.60000610352</ele>
        <time>2015-01-27T12:46:30.000Z</time>
      </trkpt>
      <trkpt lat="48.70573" lon="1.75569">
        <ele>183.60000610352</ele>
        <time>2015-01-27T12:46:36.000Z</time>
      </trkpt>
      <trkpt lat="48.70575" lon="1.75572">
        <ele>183.60000610352</ele>
        <time>2015-01-27T12:46:38.000Z</time>
      </trkpt>
      <trkpt lat="48.70578" lon="1.75576">
        <ele>183.80000305176</ele>
        <time>2015-01-27T12:46:41.000Z</time>
      </trkpt>
      <trkpt lat="48.70584" lon="1.75584">
        <ele>183.80000305176</ele>
        <time>2015-01-27T12:46:49.000Z</time>
      </trkpt>
      <trkpt lat="48.70586" lon="1.75586">
        <ele>183.80000305176</ele>
        <time>2015-01-27T12:46:50.000Z</time>
      </trkpt>
      <trkpt lat="48.70591" lon="1.75591">
        <ele>183.80000305176</ele>
        <time>2015-01-27T12:46:54.000Z</time>
      </trkpt>
      <trkpt lat="48.70598" lon="1.75599">
        <ele>183.80000305176</ele>
        <time>2015-01-27T12:47:00.000Z</time>
      </trkpt>
      <trkpt lat="48.70599" lon="1.75601">
        <ele>183.80000305176</ele>
        <time>2015-01-27T12:47:01.000Z</time>
      </trkpt>
      <trkpt lat="48.70603" lon="1.75608">
        <ele>184</ele>
        <time>2015-01-27T12:47:06.000Z</time>
      </trkpt>
      <trkpt lat="48.70604" lon="1.7561">
        <ele>183.80000305176</ele>
        <time>2015-01-27T12:47:08.000Z</time>
      </trkpt>
      <trkpt lat="48.70607" lon="1.75615">
        <ele>183.60000610352</ele>
        <time>2015-01-27T12:47:12.000Z</time>
      </trkpt>
      <trkpt lat="48.70609" lon="1.75618">
        <ele>183.39999389648</ele>
        <time>2015-01-27T12:47:14.000Z</time>
      </trkpt>
      <trkpt lat="48.70615" lon="1.75627">
        <ele>183</ele>
        <time>2015-01-27T12:47:20.000Z</time>
      </trkpt>
      <trkpt lat="48.70623" lon="1.75637">
        <ele>182.19999694824</ele>
        <time>2015-01-27T12:47:27.000Z</time>
      </trkpt>
      <trkpt lat="48.70626" lon="1.75641">
        <ele>182</ele>
        <time>2015-01-27T12:47:30.000Z</time>
      </trkpt>
      <trkpt lat="48.70628" lon="1.75644">
        <ele>181.80000305176</ele>
        <time>2015-01-27T12:47:33.000Z</time>
      </trkpt>
      <trkpt lat="48.70634" lon="1.75643">
        <ele>181.19999694824</ele>
        <time>2015-01-27T12:47:39.000Z</time>
      </trkpt>
      <trkpt lat="48.70637" lon="1.75633">
        <ele>180.39999389648</ele>
        <time>2015-01-27T12:47:45.000Z</time>
      </trkpt>
      <trkpt lat="48.7064" lon="1.75629">
        <ele>180</ele>
        <time>2015-01-27T12:47:48.000Z</time>
      </trkpt>
      <trkpt lat="48.70642" lon="1.75623">
        <ele>179.60000610352</ele>
        <time>2015-01-27T12:47:52.000Z</time>
      </trkpt>
      <trkpt lat="48.70645" lon="1.75618">
        <ele>179.19999694824</ele>
        <time>2015-01-27T12:47:58.000Z</time>
      </trkpt>
      <trkpt lat="48.70655" lon="1.75588">
        <ele>178</ele>
        <time>2015-01-27T12:49:02.000Z</time>
      </trkpt>
      <trkpt lat="48.70657" lon="1.75583">
        <ele>177.80000305176</ele>
        <time>2015-01-27T12:49:06.000Z</time>
      </trkpt>
      <trkpt lat="48.70657" lon="1.75583">
        <ele>177.80000305176</ele>
        <time>2015-01-27T12:49:07.000Z</time>
      </trkpt>
    </trkseg>
  </trk>
</gpx>